<?xml version="1.0" encoding="UTF-8" standalone="no" ?>
<gpx xmlns="http://www.topografix.com/GPX/1/1" creator="CompeGPS" version="1.1" xmlns:xsi="http://www.w3.org/2001/XMLSchema-instance" xsi:schemaLocation="http://www.topografix.com/GPX/1/1 http://www.topografix.com/GPX/1/1/gpx.xsd">
  <metadata>
    <link href="http://www.compegps.com">
      <text>CompeGPS TEAM, SL</text>
    </link>
    <time>2020-12-27T21:07:58Z</time>
    <bounds maxlat="36.836538" maxlon="-3.449730" minlat="36.810628" minlon="-3.501164"/>
  </metadata>
  <trk>
    <name>2020-12-27-HazadelSeñor</name>
    <trkseg>
      <trkpt lat="36.817079" lon="-3.501145">
        <ele>454.8</ele>
        <time>2020-12-27T07:53:47Z</time>
      </trkpt>
      <trkpt lat="36.817079" lon="-3.501145">
        <ele>457.2</ele>
        <time>2020-12-27T07:54:11Z</time>
      </trkpt>
      <trkpt lat="36.817079" lon="-3.501145">
        <ele>460.1</ele>
        <time>2020-12-27T07:54:33Z</time>
      </trkpt>
      <trkpt lat="36.817079" lon="-3.501145">
        <ele>463.5</ele>
        <time>2020-12-27T07:54:53Z</time>
      </trkpt>
      <trkpt lat="36.817212" lon="-3.500106">
        <ele>468.8</ele>
        <time>2020-12-27T07:55:13Z</time>
      </trkpt>
      <trkpt lat="36.817212" lon="-3.500106">
        <ele>472.1</ele>
        <time>2020-12-27T07:55:34Z</time>
      </trkpt>
      <trkpt lat="36.817212" lon="-3.500106">
        <ele>476.5</ele>
        <time>2020-12-27T07:55:55Z</time>
      </trkpt>
      <trkpt lat="36.817212" lon="-3.500106">
        <ele>479.8</ele>
        <time>2020-12-27T07:56:19Z</time>
      </trkpt>
      <trkpt lat="36.817212" lon="-3.500106">
        <ele>485.1</ele>
        <time>2020-12-27T07:56:39Z</time>
      </trkpt>
      <trkpt lat="36.817194" lon="-3.498773">
        <ele>489.0</ele>
        <time>2020-12-27T07:56:57Z</time>
      </trkpt>
      <trkpt lat="36.817120" lon="-3.498543">
        <ele>490.4</ele>
        <time>2020-12-27T07:57:14Z</time>
      </trkpt>
      <trkpt lat="36.817002" lon="-3.498344">
        <ele>492.8</ele>
        <time>2020-12-27T07:57:31Z</time>
      </trkpt>
      <trkpt lat="36.816882" lon="-3.498166">
        <ele>493.8</ele>
        <time>2020-12-27T07:57:48Z</time>
      </trkpt>
      <trkpt lat="36.816740" lon="-3.497980">
        <ele>496.2</ele>
        <time>2020-12-27T07:58:06Z</time>
      </trkpt>
      <trkpt lat="36.816606" lon="-3.497809">
        <ele>498.1</ele>
        <time>2020-12-27T07:58:22Z</time>
      </trkpt>
      <trkpt lat="36.816457" lon="-3.497676">
        <ele>501.0</ele>
        <time>2020-12-27T07:58:39Z</time>
      </trkpt>
      <trkpt lat="36.816288" lon="-3.497600">
        <ele>505.3</ele>
        <time>2020-12-27T07:58:55Z</time>
      </trkpt>
      <trkpt lat="36.816140" lon="-3.497457">
        <ele>504.8</ele>
        <time>2020-12-27T07:59:12Z</time>
      </trkpt>
      <trkpt lat="36.816121" lon="-3.497228">
        <ele>508.2</ele>
        <time>2020-12-27T07:59:30Z</time>
      </trkpt>
      <trkpt lat="36.816181" lon="-3.497009">
        <ele>511.1</ele>
        <time>2020-12-27T07:59:47Z</time>
      </trkpt>
      <trkpt lat="36.816277" lon="-3.496804">
        <ele>514.4</ele>
        <time>2020-12-27T08:00:04Z</time>
      </trkpt>
      <trkpt lat="36.816371" lon="-3.496615">
        <ele>514.9</ele>
        <time>2020-12-27T08:00:20Z</time>
      </trkpt>
      <trkpt lat="36.816504" lon="-3.496464">
        <ele>517.8</ele>
        <time>2020-12-27T08:00:36Z</time>
      </trkpt>
      <trkpt lat="36.816586" lon="-3.496257">
        <ele>521.2</ele>
        <time>2020-12-27T08:00:53Z</time>
      </trkpt>
      <trkpt lat="36.816587" lon="-3.496023">
        <ele>523.1</ele>
        <time>2020-12-27T08:01:12Z</time>
      </trkpt>
      <trkpt lat="36.816516" lon="-3.495814">
        <ele>525.0</ele>
        <time>2020-12-27T08:01:31Z</time>
      </trkpt>
      <trkpt lat="36.816388" lon="-3.495637">
        <ele>529.3</ele>
        <time>2020-12-27T08:01:49Z</time>
      </trkpt>
      <trkpt lat="36.816247" lon="-3.495472">
        <ele>530.3</ele>
        <time>2020-12-27T08:02:08Z</time>
      </trkpt>
      <trkpt lat="36.816126" lon="-3.495287">
        <ele>533.2</ele>
        <time>2020-12-27T08:02:25Z</time>
      </trkpt>
      <trkpt lat="36.816003" lon="-3.495109">
        <ele>535.1</ele>
        <time>2020-12-27T08:02:42Z</time>
      </trkpt>
      <trkpt lat="36.815961" lon="-3.494885">
        <ele>538.0</ele>
        <time>2020-12-27T08:03:00Z</time>
      </trkpt>
      <trkpt lat="36.816054" lon="-3.494698">
        <ele>540.9</ele>
        <time>2020-12-27T08:03:19Z</time>
      </trkpt>
      <trkpt lat="36.816225" lon="-3.494596">
        <ele>545.7</ele>
        <time>2020-12-27T08:03:39Z</time>
      </trkpt>
      <trkpt lat="36.816353" lon="-3.494463">
        <ele>548.6</ele>
        <time>2020-12-27T08:03:58Z</time>
      </trkpt>
      <trkpt lat="36.816181" lon="-3.494389">
        <ele>549.5</ele>
        <time>2020-12-27T08:04:20Z</time>
      </trkpt>
      <trkpt lat="36.816008" lon="-3.494304">
        <ele>552.4</ele>
        <time>2020-12-27T08:04:40Z</time>
      </trkpt>
      <trkpt lat="36.815839" lon="-3.494214">
        <ele>555.3</ele>
        <time>2020-12-27T08:05:16Z</time>
      </trkpt>
      <trkpt lat="36.815674" lon="-3.494135">
        <ele>557.7</ele>
        <time>2020-12-27T08:05:47Z</time>
      </trkpt>
      <trkpt lat="36.815512" lon="-3.494068">
        <ele>560.1</ele>
        <time>2020-12-27T08:06:40Z</time>
      </trkpt>
      <trkpt lat="36.815333" lon="-3.494022">
        <ele>562.5</ele>
        <time>2020-12-27T08:06:59Z</time>
      </trkpt>
      <trkpt lat="36.815444" lon="-3.493871">
        <ele>565.9</ele>
        <time>2020-12-27T08:07:19Z</time>
      </trkpt>
      <trkpt lat="36.815609" lon="-3.493755">
        <ele>567.8</ele>
        <time>2020-12-27T08:07:39Z</time>
      </trkpt>
      <trkpt lat="36.815769" lon="-3.493646">
        <ele>571.2</ele>
        <time>2020-12-27T08:07:58Z</time>
      </trkpt>
      <trkpt lat="36.815924" lon="-3.493536">
        <ele>575.5</ele>
        <time>2020-12-27T08:08:16Z</time>
      </trkpt>
      <trkpt lat="36.816038" lon="-3.493377">
        <ele>579.8</ele>
        <time>2020-12-27T08:08:35Z</time>
      </trkpt>
      <trkpt lat="36.815897" lon="-3.493296">
        <ele>582.2</ele>
        <time>2020-12-27T08:08:57Z</time>
      </trkpt>
      <trkpt lat="36.815727" lon="-3.493260">
        <ele>585.6</ele>
        <time>2020-12-27T08:09:20Z</time>
      </trkpt>
      <trkpt lat="36.815543" lon="-3.493202">
        <ele>587.5</ele>
        <time>2020-12-27T08:09:39Z</time>
      </trkpt>
      <trkpt lat="36.815361" lon="-3.493145">
        <ele>589.9</ele>
        <time>2020-12-27T08:09:58Z</time>
      </trkpt>
      <trkpt lat="36.815188" lon="-3.493089">
        <ele>593.8</ele>
        <time>2020-12-27T08:10:17Z</time>
      </trkpt>
      <trkpt lat="36.815167" lon="-3.492908">
        <ele>597.1</ele>
        <time>2020-12-27T08:10:33Z</time>
      </trkpt>
      <trkpt lat="36.815340" lon="-3.492824">
        <ele>598.1</ele>
        <time>2020-12-27T08:10:50Z</time>
      </trkpt>
      <trkpt lat="36.815507" lon="-3.492711">
        <ele>600.5</ele>
        <time>2020-12-27T08:11:07Z</time>
      </trkpt>
      <trkpt lat="36.815623" lon="-3.492558">
        <ele>602.4</ele>
        <time>2020-12-27T08:11:27Z</time>
      </trkpt>
      <trkpt lat="36.815443" lon="-3.492482">
        <ele>607.2</ele>
        <time>2020-12-27T08:11:48Z</time>
      </trkpt>
      <trkpt lat="36.815256" lon="-3.492441">
        <ele>608.2</ele>
        <time>2020-12-27T08:12:06Z</time>
      </trkpt>
      <trkpt lat="36.815073" lon="-3.492391">
        <ele>612.5</ele>
        <time>2020-12-27T08:12:24Z</time>
      </trkpt>
      <trkpt lat="36.814897" lon="-3.492361">
        <ele>613.5</ele>
        <time>2020-12-27T08:12:41Z</time>
      </trkpt>
      <trkpt lat="36.814751" lon="-3.492257">
        <ele>616.8</ele>
        <time>2020-12-27T08:13:21Z</time>
      </trkpt>
      <trkpt lat="36.814871" lon="-3.492080">
        <ele>619.7</ele>
        <time>2020-12-27T08:13:41Z</time>
      </trkpt>
      <trkpt lat="36.814997" lon="-3.491905">
        <ele>622.1</ele>
        <time>2020-12-27T08:13:59Z</time>
      </trkpt>
      <trkpt lat="36.815065" lon="-3.491698">
        <ele>626.0</ele>
        <time>2020-12-27T08:14:15Z</time>
      </trkpt>
      <trkpt lat="36.815038" lon="-3.491461">
        <ele>628.4</ele>
        <time>2020-12-27T08:14:33Z</time>
      </trkpt>
      <trkpt lat="36.814970" lon="-3.491240">
        <ele>630.8</ele>
        <time>2020-12-27T08:14:54Z</time>
      </trkpt>
      <trkpt lat="36.814879" lon="-3.491037">
        <ele>633.6</ele>
        <time>2020-12-27T08:15:14Z</time>
      </trkpt>
      <trkpt lat="36.814800" lon="-3.490821">
        <ele>637.0</ele>
        <time>2020-12-27T08:15:34Z</time>
      </trkpt>
      <trkpt lat="36.814709" lon="-3.490627">
        <ele>640.4</ele>
        <time>2020-12-27T08:15:54Z</time>
      </trkpt>
      <trkpt lat="36.814529" lon="-3.490673">
        <ele>641.3</ele>
        <time>2020-12-27T08:16:13Z</time>
      </trkpt>
      <trkpt lat="36.814381" lon="-3.490827">
        <ele>643.7</ele>
        <time>2020-12-27T08:16:30Z</time>
      </trkpt>
      <trkpt lat="36.814212" lon="-3.490889">
        <ele>643.7</ele>
        <time>2020-12-27T08:16:49Z</time>
      </trkpt>
      <trkpt lat="36.814225" lon="-3.490654">
        <ele>646.6</ele>
        <time>2020-12-27T08:17:09Z</time>
      </trkpt>
      <trkpt lat="36.814287" lon="-3.490453">
        <ele>649.0</ele>
        <time>2020-12-27T08:17:29Z</time>
      </trkpt>
      <trkpt lat="36.814339" lon="-3.490217">
        <ele>654.3</ele>
        <time>2020-12-27T08:17:51Z</time>
      </trkpt>
      <trkpt lat="36.814410" lon="-3.489997">
        <ele>654.3</ele>
        <time>2020-12-27T08:18:14Z</time>
      </trkpt>
      <trkpt lat="36.814456" lon="-3.489767">
        <ele>657.7</ele>
        <time>2020-12-27T08:18:35Z</time>
      </trkpt>
      <trkpt lat="36.814532" lon="-3.489575">
        <ele>663.4</ele>
        <time>2020-12-27T08:18:57Z</time>
      </trkpt>
      <trkpt lat="36.814595" lon="-3.489340">
        <ele>668.7</ele>
        <time>2020-12-27T08:19:18Z</time>
      </trkpt>
      <trkpt lat="36.814646" lon="-3.489110">
        <ele>670.7</ele>
        <time>2020-12-27T08:19:41Z</time>
      </trkpt>
      <trkpt lat="36.814768" lon="-3.488923">
        <ele>673.1</ele>
        <time>2020-12-27T08:20:04Z</time>
      </trkpt>
      <trkpt lat="36.814910" lon="-3.488769">
        <ele>677.4</ele>
        <time>2020-12-27T08:20:24Z</time>
      </trkpt>
      <trkpt lat="36.815057" lon="-3.488649">
        <ele>680.8</ele>
        <time>2020-12-27T08:20:44Z</time>
      </trkpt>
      <trkpt lat="36.815194" lon="-3.488492">
        <ele>683.2</ele>
        <time>2020-12-27T08:21:05Z</time>
      </trkpt>
      <trkpt lat="36.815316" lon="-3.488278">
        <ele>686.5</ele>
        <time>2020-12-27T08:21:48Z</time>
      </trkpt>
      <trkpt lat="36.815462" lon="-3.488105">
        <ele>689.9</ele>
        <time>2020-12-27T08:22:20Z</time>
      </trkpt>
      <trkpt lat="36.815578" lon="-3.487987">
        <ele>692.8</ele>
        <time>2020-12-27T08:22:49Z</time>
      </trkpt>
      <trkpt lat="36.815765" lon="-3.487953">
        <ele>696.1</ele>
        <time>2020-12-27T08:23:06Z</time>
      </trkpt>
      <trkpt lat="36.815929" lon="-3.488078">
        <ele>698.1</ele>
        <time>2020-12-27T08:23:23Z</time>
      </trkpt>
      <trkpt lat="36.816091" lon="-3.488241">
        <ele>702.9</ele>
        <time>2020-12-27T08:23:50Z</time>
      </trkpt>
      <trkpt lat="36.816254" lon="-3.488370">
        <ele>705.3</ele>
        <time>2020-12-27T08:24:09Z</time>
      </trkpt>
      <trkpt lat="36.816404" lon="-3.488521">
        <ele>708.6</ele>
        <time>2020-12-27T08:24:29Z</time>
      </trkpt>
      <trkpt lat="36.816574" lon="-3.488646">
        <ele>712.5</ele>
        <time>2020-12-27T08:25:08Z</time>
      </trkpt>
      <trkpt lat="36.816753" lon="-3.488739">
        <ele>714.9</ele>
        <time>2020-12-27T08:25:36Z</time>
      </trkpt>
      <trkpt lat="36.816928" lon="-3.488806">
        <ele>717.3</ele>
        <time>2020-12-27T08:25:57Z</time>
      </trkpt>
      <trkpt lat="36.817108" lon="-3.488875">
        <ele>719.7</ele>
        <time>2020-12-27T08:26:17Z</time>
      </trkpt>
      <trkpt lat="36.817289" lon="-3.488943">
        <ele>720.6</ele>
        <time>2020-12-27T08:26:37Z</time>
      </trkpt>
      <trkpt lat="36.817474" lon="-3.489009">
        <ele>723.0</ele>
        <time>2020-12-27T08:27:00Z</time>
      </trkpt>
      <trkpt lat="36.817650" lon="-3.489077">
        <ele>725.0</ele>
        <time>2020-12-27T08:27:23Z</time>
      </trkpt>
      <trkpt lat="36.817831" lon="-3.489132">
        <ele>727.4</ele>
        <time>2020-12-27T08:27:40Z</time>
      </trkpt>
      <trkpt lat="36.818013" lon="-3.489105">
        <ele>728.8</ele>
        <time>2020-12-27T08:27:56Z</time>
      </trkpt>
      <trkpt lat="36.818168" lon="-3.488976">
        <ele>731.7</ele>
        <time>2020-12-27T08:28:13Z</time>
      </trkpt>
      <trkpt lat="36.818339" lon="-3.488903">
        <ele>732.2</ele>
        <time>2020-12-27T08:28:30Z</time>
      </trkpt>
      <trkpt lat="36.818512" lon="-3.488846">
        <ele>735.1</ele>
        <time>2020-12-27T08:28:46Z</time>
      </trkpt>
      <trkpt lat="36.818591" lon="-3.488653">
        <ele>737.0</ele>
        <time>2020-12-27T08:29:03Z</time>
      </trkpt>
      <trkpt lat="36.818557" lon="-3.488412">
        <ele>739.9</ele>
        <time>2020-12-27T08:29:20Z</time>
      </trkpt>
      <trkpt lat="36.818490" lon="-3.488175">
        <ele>739.9</ele>
        <time>2020-12-27T08:29:38Z</time>
      </trkpt>
      <trkpt lat="36.818446" lon="-3.488015">
        <ele>742.3</ele>
        <time>2020-12-27T08:30:17Z</time>
      </trkpt>
      <trkpt lat="36.818416" lon="-3.487775">
        <ele>741.3</ele>
        <time>2020-12-27T08:30:38Z</time>
      </trkpt>
      <trkpt lat="36.818403" lon="-3.487545">
        <ele>744.7</ele>
        <time>2020-12-27T08:30:56Z</time>
      </trkpt>
      <trkpt lat="36.818387" lon="-3.487378">
        <ele>745.2</ele>
        <time>2020-12-27T08:31:25Z</time>
      </trkpt>
      <trkpt lat="36.818367" lon="-3.487147">
        <ele>747.6</ele>
        <time>2020-12-27T08:31:41Z</time>
      </trkpt>
      <trkpt lat="36.818352" lon="-3.486889">
        <ele>750.4</ele>
        <time>2020-12-27T08:31:57Z</time>
      </trkpt>
      <trkpt lat="36.818344" lon="-3.486641">
        <ele>751.9</ele>
        <time>2020-12-27T08:32:16Z</time>
      </trkpt>
      <trkpt lat="36.818342" lon="-3.486436">
        <ele>755.3</ele>
        <time>2020-12-27T08:32:59Z</time>
      </trkpt>
      <trkpt lat="36.818367" lon="-3.486200">
        <ele>759.6</ele>
        <time>2020-12-27T08:33:18Z</time>
      </trkpt>
      <trkpt lat="36.818389" lon="-3.485965">
        <ele>764.4</ele>
        <time>2020-12-27T08:33:36Z</time>
      </trkpt>
      <trkpt lat="36.818423" lon="-3.485724">
        <ele>767.8</ele>
        <time>2020-12-27T08:33:55Z</time>
      </trkpt>
      <trkpt lat="36.818449" lon="-3.485493">
        <ele>770.6</ele>
        <time>2020-12-27T08:34:13Z</time>
      </trkpt>
      <trkpt lat="36.818501" lon="-3.485248">
        <ele>774.0</ele>
        <time>2020-12-27T08:34:37Z</time>
      </trkpt>
      <trkpt lat="36.818481" lon="-3.485020">
        <ele>778.3</ele>
        <time>2020-12-27T08:35:08Z</time>
      </trkpt>
      <trkpt lat="36.818479" lon="-3.484781">
        <ele>781.2</ele>
        <time>2020-12-27T08:35:27Z</time>
      </trkpt>
      <trkpt lat="36.818473" lon="-3.484551">
        <ele>784.6</ele>
        <time>2020-12-27T08:35:48Z</time>
      </trkpt>
      <trkpt lat="36.818440" lon="-3.484329">
        <ele>787.5</ele>
        <time>2020-12-27T08:36:09Z</time>
      </trkpt>
      <trkpt lat="36.818421" lon="-3.484096">
        <ele>789.9</ele>
        <time>2020-12-27T08:36:32Z</time>
      </trkpt>
      <trkpt lat="36.818389" lon="-3.483877">
        <ele>793.7</ele>
        <time>2020-12-27T08:36:55Z</time>
      </trkpt>
      <trkpt lat="36.818368" lon="-3.483664">
        <ele>798.0</ele>
        <time>2020-12-27T08:37:17Z</time>
      </trkpt>
      <trkpt lat="36.818351" lon="-3.483444">
        <ele>801.4</ele>
        <time>2020-12-27T08:37:41Z</time>
      </trkpt>
      <trkpt lat="36.818331" lon="-3.483211">
        <ele>805.2</ele>
        <time>2020-12-27T08:38:04Z</time>
      </trkpt>
      <trkpt lat="36.818330" lon="-3.482980">
        <ele>808.1</ele>
        <time>2020-12-27T08:38:26Z</time>
      </trkpt>
      <trkpt lat="36.818317" lon="-3.482745">
        <ele>811.5</ele>
        <time>2020-12-27T08:38:48Z</time>
      </trkpt>
      <trkpt lat="36.818336" lon="-3.482523">
        <ele>813.9</ele>
        <time>2020-12-27T08:39:11Z</time>
      </trkpt>
      <trkpt lat="36.818346" lon="-3.482273">
        <ele>819.2</ele>
        <time>2020-12-27T08:39:33Z</time>
      </trkpt>
      <trkpt lat="36.818378" lon="-3.482035">
        <ele>821.6</ele>
        <time>2020-12-27T08:39:54Z</time>
      </trkpt>
      <trkpt lat="36.818406" lon="-3.481853">
        <ele>826.9</ele>
        <time>2020-12-27T08:40:52Z</time>
      </trkpt>
      <trkpt lat="36.818412" lon="-3.481621">
        <ele>831.7</ele>
        <time>2020-12-27T08:41:14Z</time>
      </trkpt>
      <trkpt lat="36.818425" lon="-3.481394">
        <ele>834.1</ele>
        <time>2020-12-27T08:41:32Z</time>
      </trkpt>
      <trkpt lat="36.818393" lon="-3.481171">
        <ele>838.4</ele>
        <time>2020-12-27T08:41:51Z</time>
      </trkpt>
      <trkpt lat="36.818370" lon="-3.480946">
        <ele>840.8</ele>
        <time>2020-12-27T08:42:09Z</time>
      </trkpt>
      <trkpt lat="36.818350" lon="-3.480717">
        <ele>845.1</ele>
        <time>2020-12-27T08:42:28Z</time>
      </trkpt>
      <trkpt lat="36.818292" lon="-3.480495">
        <ele>848.5</ele>
        <time>2020-12-27T08:42:49Z</time>
      </trkpt>
      <trkpt lat="36.818239" lon="-3.480275">
        <ele>852.8</ele>
        <time>2020-12-27T08:43:08Z</time>
      </trkpt>
      <trkpt lat="36.818159" lon="-3.480072">
        <ele>853.8</ele>
        <time>2020-12-27T08:43:30Z</time>
      </trkpt>
      <trkpt lat="36.818085" lon="-3.479844">
        <ele>859.6</ele>
        <time>2020-12-27T08:43:59Z</time>
      </trkpt>
      <trkpt lat="36.818024" lon="-3.479552">
        <ele>863.9</ele>
        <time>2020-12-27T08:44:22Z</time>
      </trkpt>
      <trkpt lat="36.818004" lon="-3.479262">
        <ele>867.7</ele>
        <time>2020-12-27T08:44:50Z</time>
      </trkpt>
      <trkpt lat="36.818020" lon="-3.479016">
        <ele>870.1</ele>
        <time>2020-12-27T08:45:11Z</time>
      </trkpt>
      <trkpt lat="36.818110" lon="-3.478792">
        <ele>872.5</ele>
        <time>2020-12-27T08:45:32Z</time>
      </trkpt>
      <trkpt lat="36.818207" lon="-3.478584">
        <ele>875.9</ele>
        <time>2020-12-27T08:45:54Z</time>
      </trkpt>
      <trkpt lat="36.818338" lon="-3.478416">
        <ele>877.3</ele>
        <time>2020-12-27T08:46:17Z</time>
      </trkpt>
      <trkpt lat="36.818361" lon="-3.478447">
        <ele>879.3</ele>
        <time>2020-12-27T08:47:32Z</time>
      </trkpt>
      <trkpt lat="36.818285" lon="-3.478663">
        <ele>880.2</ele>
        <time>2020-12-27T08:49:38Z</time>
      </trkpt>
      <trkpt lat="36.818517" lon="-3.478182">
        <ele>882.1</ele>
        <time>2020-12-27T08:50:29Z</time>
      </trkpt>
      <trkpt lat="36.818630" lon="-3.477995">
        <ele>883.6</ele>
        <time>2020-12-27T08:51:07Z</time>
      </trkpt>
      <trkpt lat="36.818758" lon="-3.477801">
        <ele>887.0</ele>
        <time>2020-12-27T08:51:25Z</time>
      </trkpt>
      <trkpt lat="36.818890" lon="-3.477621">
        <ele>890.3</ele>
        <time>2020-12-27T08:51:43Z</time>
      </trkpt>
      <trkpt lat="36.818971" lon="-3.477476">
        <ele>893.7</ele>
        <time>2020-12-27T08:52:14Z</time>
      </trkpt>
      <trkpt lat="36.819070" lon="-3.477271">
        <ele>898.0</ele>
        <time>2020-12-27T08:52:33Z</time>
      </trkpt>
      <trkpt lat="36.819143" lon="-3.477049">
        <ele>901.9</ele>
        <time>2020-12-27T08:52:54Z</time>
      </trkpt>
      <trkpt lat="36.819186" lon="-3.476823">
        <ele>905.7</ele>
        <time>2020-12-27T08:53:13Z</time>
      </trkpt>
      <trkpt lat="36.819238" lon="-3.476581">
        <ele>907.1</ele>
        <time>2020-12-27T08:53:33Z</time>
      </trkpt>
      <trkpt lat="36.819276" lon="-3.476341">
        <ele>911.0</ele>
        <time>2020-12-27T08:53:57Z</time>
      </trkpt>
      <trkpt lat="36.819257" lon="-3.476093">
        <ele>913.9</ele>
        <time>2020-12-27T08:54:34Z</time>
      </trkpt>
      <trkpt lat="36.819211" lon="-3.475868">
        <ele>917.2</ele>
        <time>2020-12-27T08:54:56Z</time>
      </trkpt>
      <trkpt lat="36.819155" lon="-3.475643">
        <ele>920.1</ele>
        <time>2020-12-27T08:55:19Z</time>
      </trkpt>
      <trkpt lat="36.819107" lon="-3.475414">
        <ele>923.0</ele>
        <time>2020-12-27T08:55:42Z</time>
      </trkpt>
      <trkpt lat="36.819078" lon="-3.475181">
        <ele>928.3</ele>
        <time>2020-12-27T08:56:07Z</time>
      </trkpt>
      <trkpt lat="36.818949" lon="-3.475161">
        <ele>931.7</ele>
        <time>2020-12-27T08:56:37Z</time>
      </trkpt>
      <trkpt lat="36.818968" lon="-3.475400">
        <ele>932.6</ele>
        <time>2020-12-27T08:56:54Z</time>
      </trkpt>
      <trkpt lat="36.818958" lon="-3.475639">
        <ele>933.1</ele>
        <time>2020-12-27T08:57:11Z</time>
      </trkpt>
      <trkpt lat="36.818959" lon="-3.475876">
        <ele>933.1</ele>
        <time>2020-12-27T08:57:27Z</time>
      </trkpt>
      <trkpt lat="36.818933" lon="-3.476107">
        <ele>935.0</ele>
        <time>2020-12-27T08:57:43Z</time>
      </trkpt>
      <trkpt lat="36.818871" lon="-3.476331">
        <ele>936.0</ele>
        <time>2020-12-27T08:58:00Z</time>
      </trkpt>
      <trkpt lat="36.818792" lon="-3.476555">
        <ele>936.5</ele>
        <time>2020-12-27T08:58:20Z</time>
      </trkpt>
      <trkpt lat="36.818673" lon="-3.476591">
        <ele>936.9</ele>
        <time>2020-12-27T08:58:39Z</time>
      </trkpt>
      <trkpt lat="36.818743" lon="-3.476359">
        <ele>940.3</ele>
        <time>2020-12-27T08:59:13Z</time>
      </trkpt>
      <trkpt lat="36.818763" lon="-3.476104">
        <ele>942.7</ele>
        <time>2020-12-27T08:59:38Z</time>
      </trkpt>
      <trkpt lat="36.818756" lon="-3.475853">
        <ele>945.6</ele>
        <time>2020-12-27T09:00:01Z</time>
      </trkpt>
      <trkpt lat="36.818731" lon="-3.475609">
        <ele>947.5</ele>
        <time>2020-12-27T09:00:21Z</time>
      </trkpt>
      <trkpt lat="36.818688" lon="-3.475377">
        <ele>949.4</ele>
        <time>2020-12-27T09:00:40Z</time>
      </trkpt>
      <trkpt lat="36.818677" lon="-3.475130">
        <ele>953.3</ele>
        <time>2020-12-27T09:01:01Z</time>
      </trkpt>
      <trkpt lat="36.818606" lon="-3.475259">
        <ele>952.8</ele>
        <time>2020-12-27T09:01:23Z</time>
      </trkpt>
      <trkpt lat="36.818586" lon="-3.475481">
        <ele>955.7</ele>
        <time>2020-12-27T09:01:43Z</time>
      </trkpt>
      <trkpt lat="36.818471" lon="-3.475785">
        <ele>961.0</ele>
        <time>2020-12-27T09:02:16Z</time>
      </trkpt>
      <trkpt lat="36.818408" lon="-3.476023">
        <ele>965.8</ele>
        <time>2020-12-27T09:02:56Z</time>
      </trkpt>
      <trkpt lat="36.818340" lon="-3.476232">
        <ele>966.3</ele>
        <time>2020-12-27T09:03:18Z</time>
      </trkpt>
      <trkpt lat="36.818227" lon="-3.476414">
        <ele>967.7</ele>
        <time>2020-12-27T09:03:39Z</time>
      </trkpt>
      <trkpt lat="36.818193" lon="-3.476229">
        <ele>972.0</ele>
        <time>2020-12-27T09:03:59Z</time>
      </trkpt>
      <trkpt lat="36.818239" lon="-3.476005">
        <ele>972.5</ele>
        <time>2020-12-27T09:04:19Z</time>
      </trkpt>
      <trkpt lat="36.818221" lon="-3.475757">
        <ele>975.9</ele>
        <time>2020-12-27T09:04:40Z</time>
      </trkpt>
      <trkpt lat="36.818189" lon="-3.475513">
        <ele>978.3</ele>
        <time>2020-12-27T09:05:00Z</time>
      </trkpt>
      <trkpt lat="36.818212" lon="-3.475330">
        <ele>980.7</ele>
        <time>2020-12-27T09:05:37Z</time>
      </trkpt>
      <trkpt lat="36.818235" lon="-3.475144">
        <ele>981.2</ele>
        <time>2020-12-27T09:08:11Z</time>
      </trkpt>
      <trkpt lat="36.818158" lon="-3.474970">
        <ele>985.5</ele>
        <time>2020-12-27T09:10:28Z</time>
      </trkpt>
      <trkpt lat="36.818194" lon="-3.474746">
        <ele>985.5</ele>
        <time>2020-12-27T09:10:49Z</time>
      </trkpt>
      <trkpt lat="36.817924" lon="-3.474417">
        <ele>986.0</ele>
        <time>2020-12-27T09:12:06Z</time>
      </trkpt>
      <trkpt lat="36.818098" lon="-3.474492">
        <ele>986.4</ele>
        <time>2020-12-27T09:34:46Z</time>
      </trkpt>
      <trkpt lat="36.818242" lon="-3.474629">
        <ele>986.0</ele>
        <time>2020-12-27T09:35:15Z</time>
      </trkpt>
      <trkpt lat="36.818171" lon="-3.474595">
        <ele>985.5</ele>
        <time>2020-12-27T09:37:25Z</time>
      </trkpt>
      <trkpt lat="36.818146" lon="-3.474533">
        <ele>984.5</ele>
        <time>2020-12-27T09:41:16Z</time>
      </trkpt>
      <trkpt lat="36.818160" lon="-3.474575">
        <ele>984.0</ele>
        <time>2020-12-27T09:43:54Z</time>
      </trkpt>
      <trkpt lat="36.818167" lon="-3.474861">
        <ele>983.6</ele>
        <time>2020-12-27T09:44:53Z</time>
      </trkpt>
      <trkpt lat="36.818137" lon="-3.475107">
        <ele>983.1</ele>
        <time>2020-12-27T09:45:11Z</time>
      </trkpt>
      <trkpt lat="36.818048" lon="-3.475387">
        <ele>986.0</ele>
        <time>2020-12-27T09:45:37Z</time>
      </trkpt>
      <trkpt lat="36.817952" lon="-3.475673">
        <ele>987.9</ele>
        <time>2020-12-27T09:46:02Z</time>
      </trkpt>
      <trkpt lat="36.817815" lon="-3.475955">
        <ele>994.1</ele>
        <time>2020-12-27T09:46:28Z</time>
      </trkpt>
      <trkpt lat="36.817663" lon="-3.476086">
        <ele>995.1</ele>
        <time>2020-12-27T09:46:49Z</time>
      </trkpt>
      <trkpt lat="36.817518" lon="-3.476244">
        <ele>998.5</ele>
        <time>2020-12-27T09:47:08Z</time>
      </trkpt>
      <trkpt lat="36.817399" lon="-3.476386">
        <ele>998.9</ele>
        <time>2020-12-27T09:47:33Z</time>
      </trkpt>
      <trkpt lat="36.817262" lon="-3.476547">
        <ele>998.5</ele>
        <time>2020-12-27T09:47:50Z</time>
      </trkpt>
      <trkpt lat="36.817121" lon="-3.476716">
        <ele>994.6</ele>
        <time>2020-12-27T09:48:09Z</time>
      </trkpt>
      <trkpt lat="36.816993" lon="-3.476898">
        <ele>993.2</ele>
        <time>2020-12-27T09:48:25Z</time>
      </trkpt>
      <trkpt lat="36.816860" lon="-3.477067">
        <ele>991.3</ele>
        <time>2020-12-27T09:48:42Z</time>
      </trkpt>
      <trkpt lat="36.816699" lon="-3.477214">
        <ele>991.7</ele>
        <time>2020-12-27T09:49:04Z</time>
      </trkpt>
      <trkpt lat="36.816525" lon="-3.477371">
        <ele>991.3</ele>
        <time>2020-12-27T09:49:25Z</time>
      </trkpt>
      <trkpt lat="36.816346" lon="-3.477534">
        <ele>991.3</ele>
        <time>2020-12-27T09:49:43Z</time>
      </trkpt>
      <trkpt lat="36.816169" lon="-3.477668">
        <ele>993.7</ele>
        <time>2020-12-27T09:50:01Z</time>
      </trkpt>
      <trkpt lat="36.816007" lon="-3.477817">
        <ele>998.5</ele>
        <time>2020-12-27T09:50:18Z</time>
      </trkpt>
      <trkpt lat="36.815837" lon="-3.477864">
        <ele>999.4</ele>
        <time>2020-12-27T09:50:35Z</time>
      </trkpt>
      <trkpt lat="36.815719" lon="-3.477787">
        <ele>1003.3</ele>
        <time>2020-12-27T09:51:40Z</time>
      </trkpt>
      <trkpt lat="36.815814" lon="-3.477592">
        <ele>1003.3</ele>
        <time>2020-12-27T09:52:02Z</time>
      </trkpt>
      <trkpt lat="36.815908" lon="-3.477402">
        <ele>1007.6</ele>
        <time>2020-12-27T09:52:23Z</time>
      </trkpt>
      <trkpt lat="36.815894" lon="-3.477128">
        <ele>1012.4</ele>
        <time>2020-12-27T09:52:53Z</time>
      </trkpt>
      <trkpt lat="36.815922" lon="-3.476912">
        <ele>1017.7</ele>
        <time>2020-12-27T09:53:21Z</time>
      </trkpt>
      <trkpt lat="36.815955" lon="-3.476696">
        <ele>1024.9</ele>
        <time>2020-12-27T09:53:51Z</time>
      </trkpt>
      <trkpt lat="36.815964" lon="-3.476474">
        <ele>1030.2</ele>
        <time>2020-12-27T09:54:24Z</time>
      </trkpt>
      <trkpt lat="36.816014" lon="-3.476252">
        <ele>1036.9</ele>
        <time>2020-12-27T09:55:07Z</time>
      </trkpt>
      <trkpt lat="36.816055" lon="-3.476036">
        <ele>1046.1</ele>
        <time>2020-12-27T09:55:54Z</time>
      </trkpt>
      <trkpt lat="36.816120" lon="-3.475819">
        <ele>1049.9</ele>
        <time>2020-12-27T09:56:44Z</time>
      </trkpt>
      <trkpt lat="36.816153" lon="-3.475608">
        <ele>1057.6</ele>
        <time>2020-12-27T09:57:28Z</time>
      </trkpt>
      <trkpt lat="36.816206" lon="-3.475398">
        <ele>1063.8</ele>
        <time>2020-12-27T09:58:08Z</time>
      </trkpt>
      <trkpt lat="36.816245" lon="-3.475186">
        <ele>1071.0</ele>
        <time>2020-12-27T09:58:45Z</time>
      </trkpt>
      <trkpt lat="36.816229" lon="-3.474949">
        <ele>1076.8</ele>
        <time>2020-12-27T09:59:16Z</time>
      </trkpt>
      <trkpt lat="36.816177" lon="-3.474730">
        <ele>1082.1</ele>
        <time>2020-12-27T09:59:47Z</time>
      </trkpt>
      <trkpt lat="36.816137" lon="-3.474508">
        <ele>1085.9</ele>
        <time>2020-12-27T10:00:28Z</time>
      </trkpt>
      <trkpt lat="36.816097" lon="-3.474303">
        <ele>1090.8</ele>
        <time>2020-12-27T10:01:24Z</time>
      </trkpt>
      <trkpt lat="36.816049" lon="-3.474088">
        <ele>1097.5</ele>
        <time>2020-12-27T10:01:50Z</time>
      </trkpt>
      <trkpt lat="36.816017" lon="-3.473866">
        <ele>1099.9</ele>
        <time>2020-12-27T10:02:18Z</time>
      </trkpt>
      <trkpt lat="36.815933" lon="-3.473660">
        <ele>1102.3</ele>
        <time>2020-12-27T10:02:41Z</time>
      </trkpt>
      <trkpt lat="36.815956" lon="-3.473432">
        <ele>1104.2</ele>
        <time>2020-12-27T10:03:03Z</time>
      </trkpt>
      <trkpt lat="36.815947" lon="-3.473199">
        <ele>1107.1</ele>
        <time>2020-12-27T10:03:22Z</time>
      </trkpt>
      <trkpt lat="36.815917" lon="-3.472991">
        <ele>1110.0</ele>
        <time>2020-12-27T10:03:52Z</time>
      </trkpt>
      <trkpt lat="36.815996" lon="-3.472849">
        <ele>1111.9</ele>
        <time>2020-12-27T10:04:25Z</time>
      </trkpt>
      <trkpt lat="36.815875" lon="-3.472698">
        <ele>1114.8</ele>
        <time>2020-12-27T10:04:46Z</time>
      </trkpt>
      <trkpt lat="36.815853" lon="-3.472468">
        <ele>1117.7</ele>
        <time>2020-12-27T10:05:04Z</time>
      </trkpt>
      <trkpt lat="36.815822" lon="-3.472244">
        <ele>1119.6</ele>
        <time>2020-12-27T10:05:22Z</time>
      </trkpt>
      <trkpt lat="36.815772" lon="-3.472022">
        <ele>1123.9</ele>
        <time>2020-12-27T10:05:49Z</time>
      </trkpt>
      <trkpt lat="36.815757" lon="-3.471786">
        <ele>1125.4</ele>
        <time>2020-12-27T10:06:17Z</time>
      </trkpt>
      <trkpt lat="36.815697" lon="-3.471564">
        <ele>1129.7</ele>
        <time>2020-12-27T10:06:46Z</time>
      </trkpt>
      <trkpt lat="36.815654" lon="-3.471344">
        <ele>1134.0</ele>
        <time>2020-12-27T10:07:14Z</time>
      </trkpt>
      <trkpt lat="36.815599" lon="-3.471124">
        <ele>1136.4</ele>
        <time>2020-12-27T10:07:37Z</time>
      </trkpt>
      <trkpt lat="36.815560" lon="-3.470922">
        <ele>1142.2</ele>
        <time>2020-12-27T10:08:38Z</time>
      </trkpt>
      <trkpt lat="36.815511" lon="-3.470691">
        <ele>1146.0</ele>
        <time>2020-12-27T10:09:07Z</time>
      </trkpt>
      <trkpt lat="36.815474" lon="-3.470459">
        <ele>1148.4</ele>
        <time>2020-12-27T10:09:33Z</time>
      </trkpt>
      <trkpt lat="36.815442" lon="-3.470228">
        <ele>1151.8</ele>
        <time>2020-12-27T10:10:01Z</time>
      </trkpt>
      <trkpt lat="36.815433" lon="-3.469998">
        <ele>1152.8</ele>
        <time>2020-12-27T10:10:29Z</time>
      </trkpt>
      <trkpt lat="36.815447" lon="-3.469760">
        <ele>1157.1</ele>
        <time>2020-12-27T10:10:57Z</time>
      </trkpt>
      <trkpt lat="36.815452" lon="-3.469531">
        <ele>1164.8</ele>
        <time>2020-12-27T10:11:25Z</time>
      </trkpt>
      <trkpt lat="36.815498" lon="-3.469301">
        <ele>1167.7</ele>
        <time>2020-12-27T10:11:57Z</time>
      </trkpt>
      <trkpt lat="36.815538" lon="-3.469082">
        <ele>1170.1</ele>
        <time>2020-12-27T10:12:49Z</time>
      </trkpt>
      <trkpt lat="36.815574" lon="-3.468865">
        <ele>1172.9</ele>
        <time>2020-12-27T10:13:43Z</time>
      </trkpt>
      <trkpt lat="36.815599" lon="-3.468636">
        <ele>1178.2</ele>
        <time>2020-12-27T10:14:10Z</time>
      </trkpt>
      <trkpt lat="36.815610" lon="-3.468401">
        <ele>1181.6</ele>
        <time>2020-12-27T10:14:41Z</time>
      </trkpt>
      <trkpt lat="36.815629" lon="-3.468177">
        <ele>1187.4</ele>
        <time>2020-12-27T10:15:10Z</time>
      </trkpt>
      <trkpt lat="36.815696" lon="-3.467977">
        <ele>1190.7</ele>
        <time>2020-12-27T10:15:49Z</time>
      </trkpt>
      <trkpt lat="36.815745" lon="-3.467753">
        <ele>1197.0</ele>
        <time>2020-12-27T10:16:22Z</time>
      </trkpt>
      <trkpt lat="36.815779" lon="-3.467533">
        <ele>1201.8</ele>
        <time>2020-12-27T10:17:03Z</time>
      </trkpt>
      <trkpt lat="36.815864" lon="-3.467333">
        <ele>1207.6</ele>
        <time>2020-12-27T10:17:29Z</time>
      </trkpt>
      <trkpt lat="36.815838" lon="-3.467118">
        <ele>1210.9</ele>
        <time>2020-12-27T10:18:25Z</time>
      </trkpt>
      <trkpt lat="36.815883" lon="-3.466901">
        <ele>1216.2</ele>
        <time>2020-12-27T10:18:58Z</time>
      </trkpt>
      <trkpt lat="36.815885" lon="-3.466665">
        <ele>1220.1</ele>
        <time>2020-12-27T10:19:21Z</time>
      </trkpt>
      <trkpt lat="36.815867" lon="-3.466433">
        <ele>1222.0</ele>
        <time>2020-12-27T10:20:00Z</time>
      </trkpt>
      <trkpt lat="36.815828" lon="-3.466198">
        <ele>1222.5</ele>
        <time>2020-12-27T10:20:23Z</time>
      </trkpt>
      <trkpt lat="36.815781" lon="-3.465982">
        <ele>1222.9</ele>
        <time>2020-12-27T10:20:43Z</time>
      </trkpt>
      <trkpt lat="36.815714" lon="-3.465747">
        <ele>1221.0</ele>
        <time>2020-12-27T10:21:03Z</time>
      </trkpt>
      <trkpt lat="36.815608" lon="-3.465543">
        <ele>1222.5</ele>
        <time>2020-12-27T10:21:19Z</time>
      </trkpt>
      <trkpt lat="36.815564" lon="-3.465304">
        <ele>1222.0</ele>
        <time>2020-12-27T10:21:38Z</time>
      </trkpt>
      <trkpt lat="36.815513" lon="-3.465083">
        <ele>1222.5</ele>
        <time>2020-12-27T10:21:54Z</time>
      </trkpt>
      <trkpt lat="36.815415" lon="-3.464886">
        <ele>1224.4</ele>
        <time>2020-12-27T10:22:11Z</time>
      </trkpt>
      <trkpt lat="36.815344" lon="-3.464673">
        <ele>1227.3</ele>
        <time>2020-12-27T10:22:31Z</time>
      </trkpt>
      <trkpt lat="36.815257" lon="-3.464473">
        <ele>1229.7</ele>
        <time>2020-12-27T10:22:49Z</time>
      </trkpt>
      <trkpt lat="36.815180" lon="-3.464253">
        <ele>1231.6</ele>
        <time>2020-12-27T10:23:08Z</time>
      </trkpt>
      <trkpt lat="36.815123" lon="-3.464056">
        <ele>1232.5</ele>
        <time>2020-12-27T10:23:26Z</time>
      </trkpt>
      <trkpt lat="36.815113" lon="-3.463830">
        <ele>1235.4</ele>
        <time>2020-12-27T10:23:50Z</time>
      </trkpt>
      <trkpt lat="36.815092" lon="-3.463596">
        <ele>1239.8</ele>
        <time>2020-12-27T10:24:15Z</time>
      </trkpt>
      <trkpt lat="36.815142" lon="-3.463376">
        <ele>1240.7</ele>
        <time>2020-12-27T10:24:39Z</time>
      </trkpt>
      <trkpt lat="36.815094" lon="-3.463131">
        <ele>1242.6</ele>
        <time>2020-12-27T10:25:00Z</time>
      </trkpt>
      <trkpt lat="36.814995" lon="-3.462912">
        <ele>1246.0</ele>
        <time>2020-12-27T10:25:19Z</time>
      </trkpt>
      <trkpt lat="36.814938" lon="-3.462686">
        <ele>1246.0</ele>
        <time>2020-12-27T10:25:53Z</time>
      </trkpt>
      <trkpt lat="36.814896" lon="-3.462458">
        <ele>1244.6</ele>
        <time>2020-12-27T10:26:13Z</time>
      </trkpt>
      <trkpt lat="36.814785" lon="-3.462283">
        <ele>1247.4</ele>
        <time>2020-12-27T10:26:35Z</time>
      </trkpt>
      <trkpt lat="36.814653" lon="-3.462119">
        <ele>1251.3</ele>
        <time>2020-12-27T10:26:54Z</time>
      </trkpt>
      <trkpt lat="36.814557" lon="-3.461923">
        <ele>1252.3</ele>
        <time>2020-12-27T10:27:42Z</time>
      </trkpt>
      <trkpt lat="36.814399" lon="-3.461889">
        <ele>1257.1</ele>
        <time>2020-12-27T10:28:03Z</time>
      </trkpt>
      <trkpt lat="36.814330" lon="-3.461814">
        <ele>1256.6</ele>
        <time>2020-12-27T10:28:28Z</time>
      </trkpt>
      <trkpt lat="36.814186" lon="-3.461722">
        <ele>1259.9</ele>
        <time>2020-12-27T10:29:01Z</time>
      </trkpt>
      <trkpt lat="36.814054" lon="-3.461600">
        <ele>1260.9</ele>
        <time>2020-12-27T10:29:25Z</time>
      </trkpt>
      <trkpt lat="36.813989" lon="-3.461374">
        <ele>1260.9</ele>
        <time>2020-12-27T10:29:54Z</time>
      </trkpt>
      <trkpt lat="36.813943" lon="-3.461151">
        <ele>1260.4</ele>
        <time>2020-12-27T10:30:14Z</time>
      </trkpt>
      <trkpt lat="36.813854" lon="-3.461134">
        <ele>1258.5</ele>
        <time>2020-12-27T10:31:40Z</time>
      </trkpt>
      <trkpt lat="36.813799" lon="-3.460978">
        <ele>1260.4</ele>
        <time>2020-12-27T10:33:11Z</time>
      </trkpt>
      <trkpt lat="36.813703" lon="-3.460950">
        <ele>1262.8</ele>
        <time>2020-12-27T10:35:13Z</time>
      </trkpt>
      <trkpt lat="36.813690" lon="-3.460972">
        <ele>1263.8</ele>
        <time>2020-12-27T10:44:44Z</time>
      </trkpt>
      <trkpt lat="36.813536" lon="-3.460923">
        <ele>1258.5</ele>
        <time>2020-12-27T10:45:20Z</time>
      </trkpt>
      <trkpt lat="36.813521" lon="-3.460730">
        <ele>1257.5</ele>
        <time>2020-12-27T10:46:40Z</time>
      </trkpt>
      <trkpt lat="36.813531" lon="-3.460567">
        <ele>1255.6</ele>
        <time>2020-12-27T10:47:29Z</time>
      </trkpt>
      <trkpt lat="36.813646" lon="-3.460413">
        <ele>1251.3</ele>
        <time>2020-12-27T10:47:54Z</time>
      </trkpt>
      <trkpt lat="36.813739" lon="-3.460229">
        <ele>1241.2</ele>
        <time>2020-12-27T10:48:31Z</time>
      </trkpt>
      <trkpt lat="36.813558" lon="-3.460102">
        <ele>1241.7</ele>
        <time>2020-12-27T10:48:48Z</time>
      </trkpt>
      <trkpt lat="36.813376" lon="-3.460032">
        <ele>1239.8</ele>
        <time>2020-12-27T10:49:04Z</time>
      </trkpt>
      <trkpt lat="36.813190" lon="-3.459974">
        <ele>1238.3</ele>
        <time>2020-12-27T10:49:26Z</time>
      </trkpt>
      <trkpt lat="36.813003" lon="-3.459993">
        <ele>1234.0</ele>
        <time>2020-12-27T10:49:44Z</time>
      </trkpt>
      <trkpt lat="36.812831" lon="-3.460089">
        <ele>1228.2</ele>
        <time>2020-12-27T10:50:02Z</time>
      </trkpt>
      <trkpt lat="36.812670" lon="-3.460170">
        <ele>1223.9</ele>
        <time>2020-12-27T10:50:19Z</time>
      </trkpt>
      <trkpt lat="36.812605" lon="-3.459954">
        <ele>1220.5</ele>
        <time>2020-12-27T10:50:40Z</time>
      </trkpt>
      <trkpt lat="36.812555" lon="-3.459708">
        <ele>1214.8</ele>
        <time>2020-12-27T10:51:04Z</time>
      </trkpt>
      <trkpt lat="36.812501" lon="-3.459479">
        <ele>1212.8</ele>
        <time>2020-12-27T10:51:24Z</time>
      </trkpt>
      <trkpt lat="36.812479" lon="-3.459241">
        <ele>1210.9</ele>
        <time>2020-12-27T10:51:43Z</time>
      </trkpt>
      <trkpt lat="36.812564" lon="-3.459024">
        <ele>1208.0</ele>
        <time>2020-12-27T10:52:01Z</time>
      </trkpt>
      <trkpt lat="36.812726" lon="-3.458968">
        <ele>1207.1</ele>
        <time>2020-12-27T10:52:17Z</time>
      </trkpt>
      <trkpt lat="36.812710" lon="-3.458818">
        <ele>1205.1</ele>
        <time>2020-12-27T10:52:47Z</time>
      </trkpt>
      <trkpt lat="36.812578" lon="-3.458636">
        <ele>1199.9</ele>
        <time>2020-12-27T10:53:05Z</time>
      </trkpt>
      <trkpt lat="36.812436" lon="-3.458458">
        <ele>1196.0</ele>
        <time>2020-12-27T10:53:23Z</time>
      </trkpt>
      <trkpt lat="36.812304" lon="-3.458286">
        <ele>1192.7</ele>
        <time>2020-12-27T10:53:39Z</time>
      </trkpt>
      <trkpt lat="36.812168" lon="-3.458112">
        <ele>1190.2</ele>
        <time>2020-12-27T10:53:54Z</time>
      </trkpt>
      <trkpt lat="36.812052" lon="-3.457925">
        <ele>1186.9</ele>
        <time>2020-12-27T10:54:12Z</time>
      </trkpt>
      <trkpt lat="36.811906" lon="-3.457758">
        <ele>1183.0</ele>
        <time>2020-12-27T10:54:31Z</time>
      </trkpt>
      <trkpt lat="36.811727" lon="-3.457624">
        <ele>1178.7</ele>
        <time>2020-12-27T10:54:49Z</time>
      </trkpt>
      <trkpt lat="36.811553" lon="-3.457519">
        <ele>1178.2</ele>
        <time>2020-12-27T10:55:05Z</time>
      </trkpt>
      <trkpt lat="36.811385" lon="-3.457406">
        <ele>1176.8</ele>
        <time>2020-12-27T10:55:20Z</time>
      </trkpt>
      <trkpt lat="36.811458" lon="-3.457284">
        <ele>1173.4</ele>
        <time>2020-12-27T10:55:45Z</time>
      </trkpt>
      <trkpt lat="36.811639" lon="-3.457307">
        <ele>1173.4</ele>
        <time>2020-12-27T10:56:00Z</time>
      </trkpt>
      <trkpt lat="36.811828" lon="-3.457326">
        <ele>1171.5</ele>
        <time>2020-12-27T10:56:15Z</time>
      </trkpt>
      <trkpt lat="36.811800" lon="-3.457182">
        <ele>1168.6</ele>
        <time>2020-12-27T10:56:35Z</time>
      </trkpt>
      <trkpt lat="36.811615" lon="-3.457073">
        <ele>1168.1</ele>
        <time>2020-12-27T10:56:50Z</time>
      </trkpt>
      <trkpt lat="36.811440" lon="-3.456956">
        <ele>1164.3</ele>
        <time>2020-12-27T10:57:05Z</time>
      </trkpt>
      <trkpt lat="36.811255" lon="-3.456883">
        <ele>1162.4</ele>
        <time>2020-12-27T10:57:20Z</time>
      </trkpt>
      <trkpt lat="36.811065" lon="-3.456858">
        <ele>1159.5</ele>
        <time>2020-12-27T10:57:36Z</time>
      </trkpt>
      <trkpt lat="36.810889" lon="-3.456798">
        <ele>1158.0</ele>
        <time>2020-12-27T10:57:52Z</time>
      </trkpt>
      <trkpt lat="36.811002" lon="-3.456668">
        <ele>1156.6</ele>
        <time>2020-12-27T10:58:06Z</time>
      </trkpt>
      <trkpt lat="36.811184" lon="-3.456648">
        <ele>1155.6</ele>
        <time>2020-12-27T10:58:21Z</time>
      </trkpt>
      <trkpt lat="36.811381" lon="-3.456631">
        <ele>1156.6</ele>
        <time>2020-12-27T10:58:36Z</time>
      </trkpt>
      <trkpt lat="36.811568" lon="-3.456599">
        <ele>1154.2</ele>
        <time>2020-12-27T10:58:51Z</time>
      </trkpt>
      <trkpt lat="36.811654" lon="-3.456479">
        <ele>1149.4</ele>
        <time>2020-12-27T10:59:09Z</time>
      </trkpt>
      <trkpt lat="36.811478" lon="-3.456375">
        <ele>1148.0</ele>
        <time>2020-12-27T10:59:23Z</time>
      </trkpt>
      <trkpt lat="36.811326" lon="-3.456235">
        <ele>1147.5</ele>
        <time>2020-12-27T10:59:37Z</time>
      </trkpt>
      <trkpt lat="36.811177" lon="-3.456092">
        <ele>1144.1</ele>
        <time>2020-12-27T10:59:51Z</time>
      </trkpt>
      <trkpt lat="36.811023" lon="-3.455967">
        <ele>1142.2</ele>
        <time>2020-12-27T11:00:04Z</time>
      </trkpt>
      <trkpt lat="36.810887" lon="-3.455794">
        <ele>1139.3</ele>
        <time>2020-12-27T11:00:18Z</time>
      </trkpt>
      <trkpt lat="36.810993" lon="-3.455595">
        <ele>1139.8</ele>
        <time>2020-12-27T11:00:33Z</time>
      </trkpt>
      <trkpt lat="36.811175" lon="-3.455552">
        <ele>1139.3</ele>
        <time>2020-12-27T11:00:54Z</time>
      </trkpt>
      <trkpt lat="36.811318" lon="-3.455464">
        <ele>1140.7</ele>
        <time>2020-12-27T11:01:13Z</time>
      </trkpt>
      <trkpt lat="36.811193" lon="-3.455290">
        <ele>1141.2</ele>
        <time>2020-12-27T11:01:31Z</time>
      </trkpt>
      <trkpt lat="36.811076" lon="-3.455113">
        <ele>1145.1</ele>
        <time>2020-12-27T11:01:50Z</time>
      </trkpt>
      <trkpt lat="36.810936" lon="-3.454961">
        <ele>1146.0</ele>
        <time>2020-12-27T11:02:15Z</time>
      </trkpt>
      <trkpt lat="36.810788" lon="-3.454806">
        <ele>1149.4</ele>
        <time>2020-12-27T11:02:37Z</time>
      </trkpt>
      <trkpt lat="36.810628" lon="-3.454673">
        <ele>1151.3</ele>
        <time>2020-12-27T11:02:56Z</time>
      </trkpt>
      <trkpt lat="36.810648" lon="-3.454487">
        <ele>1150.4</ele>
        <time>2020-12-27T11:03:14Z</time>
      </trkpt>
      <trkpt lat="36.810810" lon="-3.454570">
        <ele>1153.2</ele>
        <time>2020-12-27T11:03:34Z</time>
      </trkpt>
      <trkpt lat="36.810977" lon="-3.454640">
        <ele>1155.2</ele>
        <time>2020-12-27T11:03:53Z</time>
      </trkpt>
      <trkpt lat="36.811160" lon="-3.454617">
        <ele>1158.5</ele>
        <time>2020-12-27T11:04:12Z</time>
      </trkpt>
      <trkpt lat="36.811331" lon="-3.454522">
        <ele>1160.9</ele>
        <time>2020-12-27T11:04:33Z</time>
      </trkpt>
      <trkpt lat="36.811482" lon="-3.454403">
        <ele>1164.3</ele>
        <time>2020-12-27T11:04:53Z</time>
      </trkpt>
      <trkpt lat="36.811636" lon="-3.454259">
        <ele>1167.7</ele>
        <time>2020-12-27T11:05:18Z</time>
      </trkpt>
      <trkpt lat="36.811798" lon="-3.454158">
        <ele>1170.5</ele>
        <time>2020-12-27T11:05:38Z</time>
      </trkpt>
      <trkpt lat="36.811945" lon="-3.454035">
        <ele>1171.5</ele>
        <time>2020-12-27T11:05:56Z</time>
      </trkpt>
      <trkpt lat="36.812082" lon="-3.453894">
        <ele>1173.9</ele>
        <time>2020-12-27T11:06:17Z</time>
      </trkpt>
      <trkpt lat="36.812234" lon="-3.453756">
        <ele>1175.8</ele>
        <time>2020-12-27T11:06:40Z</time>
      </trkpt>
      <trkpt lat="36.812357" lon="-3.453590">
        <ele>1179.2</ele>
        <time>2020-12-27T11:07:00Z</time>
      </trkpt>
      <trkpt lat="36.812478" lon="-3.453419">
        <ele>1180.6</ele>
        <time>2020-12-27T11:07:19Z</time>
      </trkpt>
      <trkpt lat="36.812591" lon="-3.453245">
        <ele>1183.0</ele>
        <time>2020-12-27T11:07:37Z</time>
      </trkpt>
      <trkpt lat="36.812723" lon="-3.453072">
        <ele>1182.1</ele>
        <time>2020-12-27T11:07:56Z</time>
      </trkpt>
      <trkpt lat="36.812839" lon="-3.452888">
        <ele>1185.9</ele>
        <time>2020-12-27T11:08:14Z</time>
      </trkpt>
      <trkpt lat="36.812978" lon="-3.452728">
        <ele>1187.8</ele>
        <time>2020-12-27T11:08:31Z</time>
      </trkpt>
      <trkpt lat="36.813103" lon="-3.452564">
        <ele>1190.7</ele>
        <time>2020-12-27T11:08:51Z</time>
      </trkpt>
      <trkpt lat="36.813242" lon="-3.452410">
        <ele>1192.2</ele>
        <time>2020-12-27T11:09:09Z</time>
      </trkpt>
      <trkpt lat="36.813397" lon="-3.452289">
        <ele>1193.6</ele>
        <time>2020-12-27T11:09:27Z</time>
      </trkpt>
      <trkpt lat="36.813554" lon="-3.452386">
        <ele>1194.6</ele>
        <time>2020-12-27T11:09:44Z</time>
      </trkpt>
      <trkpt lat="36.813680" lon="-3.452570">
        <ele>1197.5</ele>
        <time>2020-12-27T11:10:01Z</time>
      </trkpt>
      <trkpt lat="36.813804" lon="-3.452746">
        <ele>1197.9</ele>
        <time>2020-12-27T11:10:18Z</time>
      </trkpt>
      <trkpt lat="36.813957" lon="-3.452892">
        <ele>1199.4</ele>
        <time>2020-12-27T11:10:35Z</time>
      </trkpt>
      <trkpt lat="36.814137" lon="-3.452972">
        <ele>1199.9</ele>
        <time>2020-12-27T11:10:51Z</time>
      </trkpt>
      <trkpt lat="36.814315" lon="-3.453011">
        <ele>1202.7</ele>
        <time>2020-12-27T11:11:08Z</time>
      </trkpt>
      <trkpt lat="36.814500" lon="-3.453028">
        <ele>1201.8</ele>
        <time>2020-12-27T11:11:26Z</time>
      </trkpt>
      <trkpt lat="36.814691" lon="-3.453038">
        <ele>1202.7</ele>
        <time>2020-12-27T11:11:45Z</time>
      </trkpt>
      <trkpt lat="36.814889" lon="-3.453036">
        <ele>1204.2</ele>
        <time>2020-12-27T11:12:04Z</time>
      </trkpt>
      <trkpt lat="36.815068" lon="-3.453041">
        <ele>1204.7</ele>
        <time>2020-12-27T11:12:19Z</time>
      </trkpt>
      <trkpt lat="36.815267" lon="-3.453048">
        <ele>1205.6</ele>
        <time>2020-12-27T11:12:36Z</time>
      </trkpt>
      <trkpt lat="36.815454" lon="-3.453054">
        <ele>1207.1</ele>
        <time>2020-12-27T11:12:52Z</time>
      </trkpt>
      <trkpt lat="36.815647" lon="-3.453043">
        <ele>1207.6</ele>
        <time>2020-12-27T11:13:08Z</time>
      </trkpt>
      <trkpt lat="36.815833" lon="-3.452987">
        <ele>1208.5</ele>
        <time>2020-12-27T11:13:24Z</time>
      </trkpt>
      <trkpt lat="36.816011" lon="-3.452943">
        <ele>1210.0</ele>
        <time>2020-12-27T11:13:40Z</time>
      </trkpt>
      <trkpt lat="36.816192" lon="-3.452875">
        <ele>1211.9</ele>
        <time>2020-12-27T11:13:56Z</time>
      </trkpt>
      <trkpt lat="36.816351" lon="-3.452749">
        <ele>1211.4</ele>
        <time>2020-12-27T11:14:11Z</time>
      </trkpt>
      <trkpt lat="36.816469" lon="-3.452582">
        <ele>1212.8</ele>
        <time>2020-12-27T11:14:27Z</time>
      </trkpt>
      <trkpt lat="36.816582" lon="-3.452403">
        <ele>1210.9</ele>
        <time>2020-12-27T11:14:43Z</time>
      </trkpt>
      <trkpt lat="36.816693" lon="-3.452231">
        <ele>1215.7</ele>
        <time>2020-12-27T11:14:58Z</time>
      </trkpt>
      <trkpt lat="36.816812" lon="-3.452059">
        <ele>1218.1</ele>
        <time>2020-12-27T11:15:13Z</time>
      </trkpt>
      <trkpt lat="36.816938" lon="-3.451888">
        <ele>1216.2</ele>
        <time>2020-12-27T11:15:28Z</time>
      </trkpt>
      <trkpt lat="36.817058" lon="-3.451705">
        <ele>1216.2</ele>
        <time>2020-12-27T11:15:44Z</time>
      </trkpt>
      <trkpt lat="36.817167" lon="-3.451525">
        <ele>1219.6</ele>
        <time>2020-12-27T11:15:59Z</time>
      </trkpt>
      <trkpt lat="36.817274" lon="-3.451342">
        <ele>1214.8</ele>
        <time>2020-12-27T11:16:14Z</time>
      </trkpt>
      <trkpt lat="36.817386" lon="-3.451167">
        <ele>1215.7</ele>
        <time>2020-12-27T11:16:28Z</time>
      </trkpt>
      <trkpt lat="36.817481" lon="-3.450972">
        <ele>1216.7</ele>
        <time>2020-12-27T11:16:42Z</time>
      </trkpt>
      <trkpt lat="36.817568" lon="-3.450766">
        <ele>1216.7</ele>
        <time>2020-12-27T11:16:56Z</time>
      </trkpt>
      <trkpt lat="36.817607" lon="-3.450554">
        <ele>1216.7</ele>
        <time>2020-12-27T11:17:09Z</time>
      </trkpt>
      <trkpt lat="36.817555" lon="-3.450330">
        <ele>1215.2</ele>
        <time>2020-12-27T11:17:23Z</time>
      </trkpt>
      <trkpt lat="36.817447" lon="-3.450140">
        <ele>1216.7</ele>
        <time>2020-12-27T11:17:38Z</time>
      </trkpt>
      <trkpt lat="36.817345" lon="-3.449954">
        <ele>1216.7</ele>
        <time>2020-12-27T11:17:51Z</time>
      </trkpt>
      <trkpt lat="36.817278" lon="-3.449736">
        <ele>1216.2</ele>
        <time>2020-12-27T11:18:06Z</time>
      </trkpt>
      <trkpt lat="36.817439" lon="-3.449730">
        <ele>1217.6</ele>
        <time>2020-12-27T11:18:36Z</time>
      </trkpt>
      <trkpt lat="36.817613" lon="-3.449792">
        <ele>1216.7</ele>
        <time>2020-12-27T11:18:54Z</time>
      </trkpt>
      <trkpt lat="36.817810" lon="-3.449842">
        <ele>1218.6</ele>
        <time>2020-12-27T11:19:12Z</time>
      </trkpt>
      <trkpt lat="36.818009" lon="-3.449820">
        <ele>1218.1</ele>
        <time>2020-12-27T11:19:29Z</time>
      </trkpt>
      <trkpt lat="36.818191" lon="-3.449862">
        <ele>1218.6</ele>
        <time>2020-12-27T11:19:44Z</time>
      </trkpt>
      <trkpt lat="36.818366" lon="-3.449904">
        <ele>1218.6</ele>
        <time>2020-12-27T11:19:59Z</time>
      </trkpt>
      <trkpt lat="36.818550" lon="-3.449856">
        <ele>1218.6</ele>
        <time>2020-12-27T11:20:14Z</time>
      </trkpt>
      <trkpt lat="36.818610" lon="-3.450065">
        <ele>1218.1</ele>
        <time>2020-12-27T11:20:31Z</time>
      </trkpt>
      <trkpt lat="36.818625" lon="-3.450306">
        <ele>1216.7</ele>
        <time>2020-12-27T11:20:48Z</time>
      </trkpt>
      <trkpt lat="36.818760" lon="-3.450490">
        <ele>1216.2</ele>
        <time>2020-12-27T11:21:02Z</time>
      </trkpt>
      <trkpt lat="36.818871" lon="-3.450695">
        <ele>1216.7</ele>
        <time>2020-12-27T11:21:18Z</time>
      </trkpt>
      <trkpt lat="36.818956" lon="-3.450902">
        <ele>1217.6</ele>
        <time>2020-12-27T11:21:33Z</time>
      </trkpt>
      <trkpt lat="36.819057" lon="-3.451111">
        <ele>1217.6</ele>
        <time>2020-12-27T11:21:48Z</time>
      </trkpt>
      <trkpt lat="36.819057" lon="-3.451364">
        <ele>1218.1</ele>
        <time>2020-12-27T11:22:04Z</time>
      </trkpt>
      <trkpt lat="36.819063" lon="-3.451615">
        <ele>1218.1</ele>
        <time>2020-12-27T11:22:19Z</time>
      </trkpt>
      <trkpt lat="36.819062" lon="-3.451874">
        <ele>1217.6</ele>
        <time>2020-12-27T11:22:34Z</time>
      </trkpt>
      <trkpt lat="36.819064" lon="-3.452128">
        <ele>1217.2</ele>
        <time>2020-12-27T11:22:49Z</time>
      </trkpt>
      <trkpt lat="36.819061" lon="-3.452379">
        <ele>1218.6</ele>
        <time>2020-12-27T11:23:04Z</time>
      </trkpt>
      <trkpt lat="36.819035" lon="-3.452629">
        <ele>1217.6</ele>
        <time>2020-12-27T11:23:19Z</time>
      </trkpt>
      <trkpt lat="36.818952" lon="-3.452837">
        <ele>1218.1</ele>
        <time>2020-12-27T11:23:33Z</time>
      </trkpt>
      <trkpt lat="36.818879" lon="-3.453034">
        <ele>1218.6</ele>
        <time>2020-12-27T11:23:48Z</time>
      </trkpt>
      <trkpt lat="36.818801" lon="-3.453245">
        <ele>1217.6</ele>
        <time>2020-12-27T11:24:03Z</time>
      </trkpt>
      <trkpt lat="36.818770" lon="-3.453482">
        <ele>1218.1</ele>
        <time>2020-12-27T11:24:18Z</time>
      </trkpt>
      <trkpt lat="36.818762" lon="-3.453739">
        <ele>1217.2</ele>
        <time>2020-12-27T11:24:34Z</time>
      </trkpt>
      <trkpt lat="36.818737" lon="-3.453988">
        <ele>1218.6</ele>
        <time>2020-12-27T11:24:50Z</time>
      </trkpt>
      <trkpt lat="36.818717" lon="-3.454228">
        <ele>1218.6</ele>
        <time>2020-12-27T11:25:05Z</time>
      </trkpt>
      <trkpt lat="36.818697" lon="-3.454472">
        <ele>1219.1</ele>
        <time>2020-12-27T11:25:22Z</time>
      </trkpt>
      <trkpt lat="36.818684" lon="-3.454715">
        <ele>1218.6</ele>
        <time>2020-12-27T11:25:38Z</time>
      </trkpt>
      <trkpt lat="36.818678" lon="-3.454961">
        <ele>1218.6</ele>
        <time>2020-12-27T11:25:54Z</time>
      </trkpt>
      <trkpt lat="36.818680" lon="-3.455199">
        <ele>1219.1</ele>
        <time>2020-12-27T11:26:09Z</time>
      </trkpt>
      <trkpt lat="36.818768" lon="-3.455411">
        <ele>1218.6</ele>
        <time>2020-12-27T11:26:23Z</time>
      </trkpt>
      <trkpt lat="36.818894" lon="-3.455596">
        <ele>1218.1</ele>
        <time>2020-12-27T11:26:38Z</time>
      </trkpt>
      <trkpt lat="36.819060" lon="-3.455720">
        <ele>1219.6</ele>
        <time>2020-12-27T11:26:52Z</time>
      </trkpt>
      <trkpt lat="36.819239" lon="-3.455800">
        <ele>1218.6</ele>
        <time>2020-12-27T11:27:06Z</time>
      </trkpt>
      <trkpt lat="36.819428" lon="-3.455766">
        <ele>1218.1</ele>
        <time>2020-12-27T11:27:20Z</time>
      </trkpt>
      <trkpt lat="36.819600" lon="-3.455703">
        <ele>1219.1</ele>
        <time>2020-12-27T11:27:33Z</time>
      </trkpt>
      <trkpt lat="36.819773" lon="-3.455634">
        <ele>1218.1</ele>
        <time>2020-12-27T11:27:46Z</time>
      </trkpt>
      <trkpt lat="36.819938" lon="-3.455515">
        <ele>1218.1</ele>
        <time>2020-12-27T11:28:00Z</time>
      </trkpt>
      <trkpt lat="36.820100" lon="-3.455389">
        <ele>1217.6</ele>
        <time>2020-12-27T11:28:14Z</time>
      </trkpt>
      <trkpt lat="36.820248" lon="-3.455269">
        <ele>1217.6</ele>
        <time>2020-12-27T11:28:28Z</time>
      </trkpt>
      <trkpt lat="36.820411" lon="-3.455142">
        <ele>1218.1</ele>
        <time>2020-12-27T11:28:42Z</time>
      </trkpt>
      <trkpt lat="36.820564" lon="-3.455025">
        <ele>1217.2</ele>
        <time>2020-12-27T11:28:56Z</time>
      </trkpt>
      <trkpt lat="36.820724" lon="-3.454917">
        <ele>1217.6</ele>
        <time>2020-12-27T11:29:10Z</time>
      </trkpt>
      <trkpt lat="36.820903" lon="-3.454844">
        <ele>1218.6</ele>
        <time>2020-12-27T11:29:24Z</time>
      </trkpt>
      <trkpt lat="36.821085" lon="-3.454926">
        <ele>1218.1</ele>
        <time>2020-12-27T11:29:38Z</time>
      </trkpt>
      <trkpt lat="36.821222" lon="-3.455082">
        <ele>1219.6</ele>
        <time>2020-12-27T11:29:52Z</time>
      </trkpt>
      <trkpt lat="36.821346" lon="-3.455258">
        <ele>1218.1</ele>
        <time>2020-12-27T11:30:06Z</time>
      </trkpt>
      <trkpt lat="36.821450" lon="-3.455474">
        <ele>1218.1</ele>
        <time>2020-12-27T11:30:21Z</time>
      </trkpt>
      <trkpt lat="36.821516" lon="-3.455669">
        <ele>1218.6</ele>
        <time>2020-12-27T11:30:34Z</time>
      </trkpt>
      <trkpt lat="36.821577" lon="-3.455888">
        <ele>1219.1</ele>
        <time>2020-12-27T11:30:59Z</time>
      </trkpt>
      <trkpt lat="36.821633" lon="-3.456118">
        <ele>1219.1</ele>
        <time>2020-12-27T11:31:14Z</time>
      </trkpt>
      <trkpt lat="36.821667" lon="-3.456345">
        <ele>1218.6</ele>
        <time>2020-12-27T11:31:28Z</time>
      </trkpt>
      <trkpt lat="36.821700" lon="-3.456593">
        <ele>1219.1</ele>
        <time>2020-12-27T11:31:43Z</time>
      </trkpt>
      <trkpt lat="36.821735" lon="-3.456826">
        <ele>1219.6</ele>
        <time>2020-12-27T11:31:58Z</time>
      </trkpt>
      <trkpt lat="36.821787" lon="-3.457057">
        <ele>1220.5</ele>
        <time>2020-12-27T11:32:18Z</time>
      </trkpt>
      <trkpt lat="36.821812" lon="-3.457296">
        <ele>1220.5</ele>
        <time>2020-12-27T11:32:34Z</time>
      </trkpt>
      <trkpt lat="36.821861" lon="-3.457537">
        <ele>1219.6</ele>
        <time>2020-12-27T11:32:58Z</time>
      </trkpt>
      <trkpt lat="36.821925" lon="-3.457759">
        <ele>1218.6</ele>
        <time>2020-12-27T11:33:14Z</time>
      </trkpt>
      <trkpt lat="36.821997" lon="-3.457982">
        <ele>1218.6</ele>
        <time>2020-12-27T11:33:29Z</time>
      </trkpt>
      <trkpt lat="36.822100" lon="-3.458181">
        <ele>1218.6</ele>
        <time>2020-12-27T11:33:44Z</time>
      </trkpt>
      <trkpt lat="36.822220" lon="-3.458373">
        <ele>1219.1</ele>
        <time>2020-12-27T11:34:00Z</time>
      </trkpt>
      <trkpt lat="36.822319" lon="-3.458573">
        <ele>1218.6</ele>
        <time>2020-12-27T11:34:15Z</time>
      </trkpt>
      <trkpt lat="36.822413" lon="-3.458786">
        <ele>1218.6</ele>
        <time>2020-12-27T11:34:30Z</time>
      </trkpt>
      <trkpt lat="36.822501" lon="-3.459006">
        <ele>1218.1</ele>
        <time>2020-12-27T11:34:45Z</time>
      </trkpt>
      <trkpt lat="36.822597" lon="-3.459204">
        <ele>1219.1</ele>
        <time>2020-12-27T11:34:59Z</time>
      </trkpt>
      <trkpt lat="36.822710" lon="-3.459392">
        <ele>1218.6</ele>
        <time>2020-12-27T11:35:13Z</time>
      </trkpt>
      <trkpt lat="36.822861" lon="-3.459540">
        <ele>1218.1</ele>
        <time>2020-12-27T11:35:27Z</time>
      </trkpt>
      <trkpt lat="36.823039" lon="-3.459550">
        <ele>1219.1</ele>
        <time>2020-12-27T11:35:41Z</time>
      </trkpt>
      <trkpt lat="36.823207" lon="-3.459441">
        <ele>1219.1</ele>
        <time>2020-12-27T11:35:56Z</time>
      </trkpt>
      <trkpt lat="36.823358" lon="-3.459320">
        <ele>1219.1</ele>
        <time>2020-12-27T11:36:10Z</time>
      </trkpt>
      <trkpt lat="36.823515" lon="-3.459190">
        <ele>1219.6</ele>
        <time>2020-12-27T11:36:24Z</time>
      </trkpt>
      <trkpt lat="36.823676" lon="-3.459092">
        <ele>1219.6</ele>
        <time>2020-12-27T11:36:38Z</time>
      </trkpt>
      <trkpt lat="36.823839" lon="-3.458991">
        <ele>1220.1</ele>
        <time>2020-12-27T11:36:53Z</time>
      </trkpt>
      <trkpt lat="36.824003" lon="-3.458883">
        <ele>1220.5</ele>
        <time>2020-12-27T11:37:08Z</time>
      </trkpt>
      <trkpt lat="36.824151" lon="-3.458739">
        <ele>1220.5</ele>
        <time>2020-12-27T11:37:23Z</time>
      </trkpt>
      <trkpt lat="36.824307" lon="-3.458615">
        <ele>1220.5</ele>
        <time>2020-12-27T11:37:38Z</time>
      </trkpt>
      <trkpt lat="36.824471" lon="-3.458497">
        <ele>1222.0</ele>
        <time>2020-12-27T11:37:53Z</time>
      </trkpt>
      <trkpt lat="36.824633" lon="-3.458364">
        <ele>1222.5</ele>
        <time>2020-12-27T11:38:07Z</time>
      </trkpt>
      <trkpt lat="36.824801" lon="-3.458274">
        <ele>1221.5</ele>
        <time>2020-12-27T11:38:21Z</time>
      </trkpt>
      <trkpt lat="36.824951" lon="-3.458132">
        <ele>1219.1</ele>
        <time>2020-12-27T11:38:35Z</time>
      </trkpt>
      <trkpt lat="36.825034" lon="-3.457930">
        <ele>1218.6</ele>
        <time>2020-12-27T11:38:55Z</time>
      </trkpt>
      <trkpt lat="36.825060" lon="-3.457699">
        <ele>1217.6</ele>
        <time>2020-12-27T11:39:09Z</time>
      </trkpt>
      <trkpt lat="36.825053" lon="-3.457479">
        <ele>1218.6</ele>
        <time>2020-12-27T11:39:36Z</time>
      </trkpt>
      <trkpt lat="36.825013" lon="-3.457252">
        <ele>1217.6</ele>
        <time>2020-12-27T11:39:50Z</time>
      </trkpt>
      <trkpt lat="36.824999" lon="-3.457002">
        <ele>1218.6</ele>
        <time>2020-12-27T11:40:05Z</time>
      </trkpt>
      <trkpt lat="36.825090" lon="-3.456729">
        <ele>1218.6</ele>
        <time>2020-12-27T11:40:21Z</time>
      </trkpt>
      <trkpt lat="36.825198" lon="-3.456611">
        <ele>1218.6</ele>
        <time>2020-12-27T11:40:59Z</time>
      </trkpt>
      <trkpt lat="36.825389" lon="-3.456647">
        <ele>1218.6</ele>
        <time>2020-12-27T11:41:20Z</time>
      </trkpt>
      <trkpt lat="36.825663" lon="-3.456683">
        <ele>1218.1</ele>
        <time>2020-12-27T11:41:35Z</time>
      </trkpt>
      <trkpt lat="36.825850" lon="-3.456651">
        <ele>1218.1</ele>
        <time>2020-12-27T11:41:48Z</time>
      </trkpt>
      <trkpt lat="36.826046" lon="-3.456574">
        <ele>1217.6</ele>
        <time>2020-12-27T11:42:05Z</time>
      </trkpt>
      <trkpt lat="36.826283" lon="-3.456522">
        <ele>1217.6</ele>
        <time>2020-12-27T11:42:23Z</time>
      </trkpt>
      <trkpt lat="36.826423" lon="-3.456314">
        <ele>1218.1</ele>
        <time>2020-12-27T11:42:38Z</time>
      </trkpt>
      <trkpt lat="36.826514" lon="-3.456024">
        <ele>1217.6</ele>
        <time>2020-12-27T11:42:59Z</time>
      </trkpt>
      <trkpt lat="36.826581" lon="-3.455755">
        <ele>1218.6</ele>
        <time>2020-12-27T11:43:16Z</time>
      </trkpt>
      <trkpt lat="36.826633" lon="-3.455496">
        <ele>1219.6</ele>
        <time>2020-12-27T11:43:33Z</time>
      </trkpt>
      <trkpt lat="36.826700" lon="-3.455201">
        <ele>1220.1</ele>
        <time>2020-12-27T11:43:53Z</time>
      </trkpt>
      <trkpt lat="36.826817" lon="-3.454946">
        <ele>1223.4</ele>
        <time>2020-12-27T11:44:13Z</time>
      </trkpt>
      <trkpt lat="36.826980" lon="-3.454977">
        <ele>1226.8</ele>
        <time>2020-12-27T11:44:30Z</time>
      </trkpt>
      <trkpt lat="36.827005" lon="-3.455242">
        <ele>1226.3</ele>
        <time>2020-12-27T11:44:47Z</time>
      </trkpt>
      <trkpt lat="36.827122" lon="-3.455455">
        <ele>1228.2</ele>
        <time>2020-12-27T11:45:04Z</time>
      </trkpt>
      <trkpt lat="36.827195" lon="-3.455687">
        <ele>1228.2</ele>
        <time>2020-12-27T11:45:20Z</time>
      </trkpt>
      <trkpt lat="36.827275" lon="-3.455922">
        <ele>1228.7</ele>
        <time>2020-12-27T11:45:36Z</time>
      </trkpt>
      <trkpt lat="36.827339" lon="-3.456147">
        <ele>1230.1</ele>
        <time>2020-12-27T11:45:51Z</time>
      </trkpt>
      <trkpt lat="36.827387" lon="-3.456384">
        <ele>1228.2</ele>
        <time>2020-12-27T11:46:06Z</time>
      </trkpt>
      <trkpt lat="36.827436" lon="-3.456611">
        <ele>1229.7</ele>
        <time>2020-12-27T11:46:20Z</time>
      </trkpt>
      <trkpt lat="36.827444" lon="-3.456845">
        <ele>1228.7</ele>
        <time>2020-12-27T11:46:34Z</time>
      </trkpt>
      <trkpt lat="36.827469" lon="-3.457088">
        <ele>1230.1</ele>
        <time>2020-12-27T11:46:49Z</time>
      </trkpt>
      <trkpt lat="36.827509" lon="-3.457321">
        <ele>1230.6</ele>
        <time>2020-12-27T11:47:04Z</time>
      </trkpt>
      <trkpt lat="36.827631" lon="-3.457496">
        <ele>1230.1</ele>
        <time>2020-12-27T11:47:19Z</time>
      </trkpt>
      <trkpt lat="36.827807" lon="-3.457591">
        <ele>1230.1</ele>
        <time>2020-12-27T11:47:34Z</time>
      </trkpt>
      <trkpt lat="36.827990" lon="-3.457656">
        <ele>1228.2</ele>
        <time>2020-12-27T11:47:48Z</time>
      </trkpt>
      <trkpt lat="36.828183" lon="-3.457702">
        <ele>1229.2</ele>
        <time>2020-12-27T11:48:02Z</time>
      </trkpt>
      <trkpt lat="36.828365" lon="-3.457743">
        <ele>1229.7</ele>
        <time>2020-12-27T11:48:15Z</time>
      </trkpt>
      <trkpt lat="36.828546" lon="-3.457777">
        <ele>1229.7</ele>
        <time>2020-12-27T11:48:28Z</time>
      </trkpt>
      <trkpt lat="36.828730" lon="-3.457767">
        <ele>1229.2</ele>
        <time>2020-12-27T11:48:43Z</time>
      </trkpt>
      <trkpt lat="36.828844" lon="-3.457872">
        <ele>1229.7</ele>
        <time>2020-12-27T11:49:27Z</time>
      </trkpt>
      <trkpt lat="36.828897" lon="-3.458106">
        <ele>1229.7</ele>
        <time>2020-12-27T11:49:43Z</time>
      </trkpt>
      <trkpt lat="36.828886" lon="-3.458336">
        <ele>1230.6</ele>
        <time>2020-12-27T11:49:57Z</time>
      </trkpt>
      <trkpt lat="36.828850" lon="-3.458567">
        <ele>1230.1</ele>
        <time>2020-12-27T11:50:11Z</time>
      </trkpt>
      <trkpt lat="36.828743" lon="-3.458760">
        <ele>1229.2</ele>
        <time>2020-12-27T11:50:26Z</time>
      </trkpt>
      <trkpt lat="36.828610" lon="-3.458949">
        <ele>1230.6</ele>
        <time>2020-12-27T11:50:50Z</time>
      </trkpt>
      <trkpt lat="36.828497" lon="-3.459129">
        <ele>1231.1</ele>
        <time>2020-12-27T11:51:10Z</time>
      </trkpt>
      <trkpt lat="36.828395" lon="-3.459340">
        <ele>1231.1</ele>
        <time>2020-12-27T11:51:27Z</time>
      </trkpt>
      <trkpt lat="36.828294" lon="-3.459543">
        <ele>1232.1</ele>
        <time>2020-12-27T11:51:42Z</time>
      </trkpt>
      <trkpt lat="36.828181" lon="-3.459736">
        <ele>1233.5</ele>
        <time>2020-12-27T11:51:57Z</time>
      </trkpt>
      <trkpt lat="36.828087" lon="-3.459936">
        <ele>1233.5</ele>
        <time>2020-12-27T11:52:12Z</time>
      </trkpt>
      <trkpt lat="36.827996" lon="-3.460148">
        <ele>1235.0</ele>
        <time>2020-12-27T11:52:27Z</time>
      </trkpt>
      <trkpt lat="36.827909" lon="-3.460364">
        <ele>1235.0</ele>
        <time>2020-12-27T11:52:42Z</time>
      </trkpt>
      <trkpt lat="36.827911" lon="-3.460598">
        <ele>1235.4</ele>
        <time>2020-12-27T11:52:57Z</time>
      </trkpt>
      <trkpt lat="36.827938" lon="-3.460833">
        <ele>1235.9</ele>
        <time>2020-12-27T11:53:12Z</time>
      </trkpt>
      <trkpt lat="36.827965" lon="-3.461067">
        <ele>1236.9</ele>
        <time>2020-12-27T11:53:26Z</time>
      </trkpt>
      <trkpt lat="36.827971" lon="-3.461303">
        <ele>1235.4</ele>
        <time>2020-12-27T11:53:45Z</time>
      </trkpt>
      <trkpt lat="36.827957" lon="-3.461563">
        <ele>1235.9</ele>
        <time>2020-12-27T11:54:02Z</time>
      </trkpt>
      <trkpt lat="36.827966" lon="-3.461812">
        <ele>1235.9</ele>
        <time>2020-12-27T11:54:16Z</time>
      </trkpt>
      <trkpt lat="36.827975" lon="-3.462048">
        <ele>1235.9</ele>
        <time>2020-12-27T11:54:30Z</time>
      </trkpt>
      <trkpt lat="36.827971" lon="-3.462287">
        <ele>1235.9</ele>
        <time>2020-12-27T11:54:44Z</time>
      </trkpt>
      <trkpt lat="36.828022" lon="-3.462516">
        <ele>1236.9</ele>
        <time>2020-12-27T11:54:59Z</time>
      </trkpt>
      <trkpt lat="36.828086" lon="-3.462749">
        <ele>1235.0</ele>
        <time>2020-12-27T11:55:14Z</time>
      </trkpt>
      <trkpt lat="36.828116" lon="-3.462983">
        <ele>1235.9</ele>
        <time>2020-12-27T11:55:28Z</time>
      </trkpt>
      <trkpt lat="36.828163" lon="-3.463210">
        <ele>1238.3</ele>
        <time>2020-12-27T11:55:43Z</time>
      </trkpt>
      <trkpt lat="36.828202" lon="-3.463453">
        <ele>1240.2</ele>
        <time>2020-12-27T11:56:00Z</time>
      </trkpt>
      <trkpt lat="36.828260" lon="-3.463489">
        <ele>1240.2</ele>
        <time>2020-12-27T11:56:24Z</time>
      </trkpt>
      <trkpt lat="36.828442" lon="-3.463470">
        <ele>1240.7</ele>
        <time>2020-12-27T11:56:48Z</time>
      </trkpt>
      <trkpt lat="36.828628" lon="-3.463445">
        <ele>1239.8</ele>
        <time>2020-12-27T11:57:20Z</time>
      </trkpt>
      <trkpt lat="36.828808" lon="-3.463413">
        <ele>1239.8</ele>
        <time>2020-12-27T11:57:41Z</time>
      </trkpt>
      <trkpt lat="36.828995" lon="-3.463373">
        <ele>1241.2</ele>
        <time>2020-12-27T11:57:59Z</time>
      </trkpt>
      <trkpt lat="36.829183" lon="-3.463333">
        <ele>1240.7</ele>
        <time>2020-12-27T11:58:16Z</time>
      </trkpt>
      <trkpt lat="36.829364" lon="-3.463302">
        <ele>1240.7</ele>
        <time>2020-12-27T11:58:34Z</time>
      </trkpt>
      <trkpt lat="36.829547" lon="-3.463299">
        <ele>1239.8</ele>
        <time>2020-12-27T11:58:51Z</time>
      </trkpt>
      <trkpt lat="36.829700" lon="-3.463358">
        <ele>1239.8</ele>
        <time>2020-12-27T12:00:27Z</time>
      </trkpt>
      <trkpt lat="36.829871" lon="-3.463413">
        <ele>1240.2</ele>
        <time>2020-12-27T12:01:08Z</time>
      </trkpt>
      <trkpt lat="36.830053" lon="-3.463487">
        <ele>1240.2</ele>
        <time>2020-12-27T12:01:25Z</time>
      </trkpt>
      <trkpt lat="36.830232" lon="-3.463530">
        <ele>1240.7</ele>
        <time>2020-12-27T12:01:42Z</time>
      </trkpt>
      <trkpt lat="36.830421" lon="-3.463562">
        <ele>1242.2</ele>
        <time>2020-12-27T12:01:59Z</time>
      </trkpt>
      <trkpt lat="36.830608" lon="-3.463602">
        <ele>1241.7</ele>
        <time>2020-12-27T12:02:57Z</time>
      </trkpt>
      <trkpt lat="36.830793" lon="-3.463630">
        <ele>1244.1</ele>
        <time>2020-12-27T12:03:21Z</time>
      </trkpt>
      <trkpt lat="36.830960" lon="-3.463703">
        <ele>1244.6</ele>
        <time>2020-12-27T12:04:09Z</time>
      </trkpt>
      <trkpt lat="36.831140" lon="-3.463757">
        <ele>1244.1</ele>
        <time>2020-12-27T12:04:30Z</time>
      </trkpt>
      <trkpt lat="36.831309" lon="-3.463809">
        <ele>1241.7</ele>
        <time>2020-12-27T12:04:56Z</time>
      </trkpt>
      <trkpt lat="36.831494" lon="-3.463886">
        <ele>1238.8</ele>
        <time>2020-12-27T12:05:14Z</time>
      </trkpt>
      <trkpt lat="36.831674" lon="-3.463973">
        <ele>1235.9</ele>
        <time>2020-12-27T12:05:33Z</time>
      </trkpt>
      <trkpt lat="36.831846" lon="-3.464079">
        <ele>1233.5</ele>
        <time>2020-12-27T12:06:25Z</time>
      </trkpt>
      <trkpt lat="36.831998" lon="-3.464224">
        <ele>1230.6</ele>
        <time>2020-12-27T12:06:50Z</time>
      </trkpt>
      <trkpt lat="36.832140" lon="-3.464369">
        <ele>1227.7</ele>
        <time>2020-12-27T12:07:07Z</time>
      </trkpt>
      <trkpt lat="36.832268" lon="-3.464528">
        <ele>1225.8</ele>
        <time>2020-12-27T12:07:28Z</time>
      </trkpt>
      <trkpt lat="36.832334" lon="-3.464746">
        <ele>1225.3</ele>
        <time>2020-12-27T12:07:50Z</time>
      </trkpt>
      <trkpt lat="36.832315" lon="-3.464809">
        <ele>1224.9</ele>
        <time>2020-12-27T12:09:01Z</time>
      </trkpt>
      <trkpt lat="36.832306" lon="-3.464913">
        <ele>1224.4</ele>
        <time>2020-12-27T12:10:48Z</time>
      </trkpt>
      <trkpt lat="36.832390" lon="-3.465045">
        <ele>1221.5</ele>
        <time>2020-12-27T12:11:53Z</time>
      </trkpt>
      <trkpt lat="36.832451" lon="-3.465246">
        <ele>1219.6</ele>
        <time>2020-12-27T12:12:46Z</time>
      </trkpt>
      <trkpt lat="36.832490" lon="-3.465450">
        <ele>1217.6</ele>
        <time>2020-12-27T12:14:05Z</time>
      </trkpt>
      <trkpt lat="36.832479" lon="-3.465636">
        <ele>1217.2</ele>
        <time>2020-12-27T12:14:59Z</time>
      </trkpt>
      <trkpt lat="36.832398" lon="-3.465863">
        <ele>1216.7</ele>
        <time>2020-12-27T12:15:28Z</time>
      </trkpt>
      <trkpt lat="36.832345" lon="-3.466101">
        <ele>1215.2</ele>
        <time>2020-12-27T12:15:51Z</time>
      </trkpt>
      <trkpt lat="36.832403" lon="-3.466324">
        <ele>1212.8</ele>
        <time>2020-12-27T12:16:17Z</time>
      </trkpt>
      <trkpt lat="36.832486" lon="-3.466544">
        <ele>1210.0</ele>
        <time>2020-12-27T12:16:48Z</time>
      </trkpt>
      <trkpt lat="36.832520" lon="-3.466652">
        <ele>1209.5</ele>
        <time>2020-12-27T12:18:11Z</time>
      </trkpt>
      <trkpt lat="36.832499" lon="-3.466888">
        <ele>1208.5</ele>
        <time>2020-12-27T12:18:33Z</time>
      </trkpt>
      <trkpt lat="36.832397" lon="-3.467082">
        <ele>1208.5</ele>
        <time>2020-12-27T12:18:54Z</time>
      </trkpt>
      <trkpt lat="36.832221" lon="-3.467217">
        <ele>1210.9</ele>
        <time>2020-12-27T12:19:18Z</time>
      </trkpt>
      <trkpt lat="36.832041" lon="-3.467392">
        <ele>1211.4</ele>
        <time>2020-12-27T12:20:05Z</time>
      </trkpt>
      <trkpt lat="36.831951" lon="-3.467518">
        <ele>1210.9</ele>
        <time>2020-12-27T12:20:37Z</time>
      </trkpt>
      <trkpt lat="36.831824" lon="-3.467819">
        <ele>1210.9</ele>
        <time>2020-12-27T12:21:09Z</time>
      </trkpt>
      <trkpt lat="36.831722" lon="-3.468079">
        <ele>1208.0</ele>
        <time>2020-12-27T12:21:32Z</time>
      </trkpt>
      <trkpt lat="36.831572" lon="-3.468268">
        <ele>1208.0</ele>
        <time>2020-12-27T12:22:02Z</time>
      </trkpt>
      <trkpt lat="36.831416" lon="-3.468422">
        <ele>1207.1</ele>
        <time>2020-12-27T12:22:20Z</time>
      </trkpt>
      <trkpt lat="36.831262" lon="-3.468572">
        <ele>1203.7</ele>
        <time>2020-12-27T12:22:37Z</time>
      </trkpt>
      <trkpt lat="36.831127" lon="-3.468733">
        <ele>1201.3</ele>
        <time>2020-12-27T12:22:55Z</time>
      </trkpt>
      <trkpt lat="36.831010" lon="-3.468913">
        <ele>1199.9</ele>
        <time>2020-12-27T12:23:12Z</time>
      </trkpt>
      <trkpt lat="36.830929" lon="-3.469077">
        <ele>1196.5</ele>
        <time>2020-12-27T12:23:36Z</time>
      </trkpt>
      <trkpt lat="36.830946" lon="-3.469077">
        <ele>1197.5</ele>
        <time>2020-12-27T12:24:59Z</time>
      </trkpt>
      <trkpt lat="36.830902" lon="-3.469092">
        <ele>1198.4</ele>
        <time>2020-12-27T12:27:05Z</time>
      </trkpt>
      <trkpt lat="36.830835" lon="-3.469039">
        <ele>1200.8</ele>
        <time>2020-12-27T12:28:12Z</time>
      </trkpt>
      <trkpt lat="36.830928" lon="-3.469075">
        <ele>1195.5</ele>
        <time>2020-12-27T12:29:17Z</time>
      </trkpt>
      <trkpt lat="36.830941" lon="-3.469090">
        <ele>1194.6</ele>
        <time>2020-12-27T12:41:46Z</time>
      </trkpt>
      <trkpt lat="36.830845" lon="-3.469027">
        <ele>1201.3</ele>
        <time>2020-12-27T12:46:36Z</time>
      </trkpt>
      <trkpt lat="36.830951" lon="-3.469079">
        <ele>1196.5</ele>
        <time>2020-12-27T12:47:19Z</time>
      </trkpt>
      <trkpt lat="36.831047" lon="-3.469029">
        <ele>1193.1</ele>
        <time>2020-12-27T12:48:59Z</time>
      </trkpt>
      <trkpt lat="36.831224" lon="-3.469006">
        <ele>1187.8</ele>
        <time>2020-12-27T12:49:31Z</time>
      </trkpt>
      <trkpt lat="36.831405" lon="-3.468967">
        <ele>1181.1</ele>
        <time>2020-12-27T12:49:56Z</time>
      </trkpt>
      <trkpt lat="36.831600" lon="-3.468953">
        <ele>1177.3</ele>
        <time>2020-12-27T12:50:21Z</time>
      </trkpt>
      <trkpt lat="36.831798" lon="-3.468951">
        <ele>1172.5</ele>
        <time>2020-12-27T12:50:38Z</time>
      </trkpt>
      <trkpt lat="36.831995" lon="-3.468963">
        <ele>1167.7</ele>
        <time>2020-12-27T12:50:56Z</time>
      </trkpt>
      <trkpt lat="36.832193" lon="-3.469001">
        <ele>1164.3</ele>
        <time>2020-12-27T12:51:15Z</time>
      </trkpt>
      <trkpt lat="36.832351" lon="-3.469023">
        <ele>1159.5</ele>
        <time>2020-12-27T12:52:54Z</time>
      </trkpt>
      <trkpt lat="36.832552" lon="-3.469043">
        <ele>1154.7</ele>
        <time>2020-12-27T12:53:16Z</time>
      </trkpt>
      <trkpt lat="36.832748" lon="-3.469025">
        <ele>1151.3</ele>
        <time>2020-12-27T12:53:39Z</time>
      </trkpt>
      <trkpt lat="36.832943" lon="-3.469082">
        <ele>1145.5</ele>
        <time>2020-12-27T12:54:03Z</time>
      </trkpt>
      <trkpt lat="36.833120" lon="-3.469147">
        <ele>1140.3</ele>
        <time>2020-12-27T12:54:32Z</time>
      </trkpt>
      <trkpt lat="36.833295" lon="-3.469176">
        <ele>1135.5</ele>
        <time>2020-12-27T12:54:52Z</time>
      </trkpt>
      <trkpt lat="36.833496" lon="-3.469193">
        <ele>1129.7</ele>
        <time>2020-12-27T12:55:14Z</time>
      </trkpt>
      <trkpt lat="36.833682" lon="-3.469247">
        <ele>1121.0</ele>
        <time>2020-12-27T12:55:33Z</time>
      </trkpt>
      <trkpt lat="36.833889" lon="-3.469235">
        <ele>1116.7</ele>
        <time>2020-12-27T12:55:54Z</time>
      </trkpt>
      <trkpt lat="36.834091" lon="-3.469119">
        <ele>1112.9</ele>
        <time>2020-12-27T12:56:12Z</time>
      </trkpt>
      <trkpt lat="36.834283" lon="-3.469115">
        <ele>1107.1</ele>
        <time>2020-12-27T12:56:43Z</time>
      </trkpt>
      <trkpt lat="36.834492" lon="-3.469100">
        <ele>1100.4</ele>
        <time>2020-12-27T12:57:08Z</time>
      </trkpt>
      <trkpt lat="36.834696" lon="-3.469021">
        <ele>1094.6</ele>
        <time>2020-12-27T12:57:27Z</time>
      </trkpt>
      <trkpt lat="36.834923" lon="-3.469021">
        <ele>1087.4</ele>
        <time>2020-12-27T12:57:52Z</time>
      </trkpt>
      <trkpt lat="36.835133" lon="-3.469032">
        <ele>1080.7</ele>
        <time>2020-12-27T12:58:17Z</time>
      </trkpt>
      <trkpt lat="36.835291" lon="-3.468911">
        <ele>1077.3</ele>
        <time>2020-12-27T12:58:43Z</time>
      </trkpt>
      <trkpt lat="36.835291" lon="-3.469040">
        <ele>1072.0</ele>
        <time>2020-12-27T12:59:05Z</time>
      </trkpt>
      <trkpt lat="36.835172" lon="-3.469209">
        <ele>1070.6</ele>
        <time>2020-12-27T12:59:21Z</time>
      </trkpt>
      <trkpt lat="36.835074" lon="-3.469411">
        <ele>1066.7</ele>
        <time>2020-12-27T12:59:37Z</time>
      </trkpt>
      <trkpt lat="36.835161" lon="-3.469559">
        <ele>1063.8</ele>
        <time>2020-12-27T12:59:55Z</time>
      </trkpt>
      <trkpt lat="36.835353" lon="-3.469554">
        <ele>1061.9</ele>
        <time>2020-12-27T13:00:09Z</time>
      </trkpt>
      <trkpt lat="36.835501" lon="-3.469714">
        <ele>1059.5</ele>
        <time>2020-12-27T13:00:24Z</time>
      </trkpt>
      <trkpt lat="36.835574" lon="-3.469934">
        <ele>1057.6</ele>
        <time>2020-12-27T13:00:38Z</time>
      </trkpt>
      <trkpt lat="36.835699" lon="-3.470114">
        <ele>1053.3</ele>
        <time>2020-12-27T13:00:52Z</time>
      </trkpt>
      <trkpt lat="36.835857" lon="-3.470255">
        <ele>1051.3</ele>
        <time>2020-12-27T13:01:07Z</time>
      </trkpt>
      <trkpt lat="36.836017" lon="-3.470321">
        <ele>1047.0</ele>
        <time>2020-12-27T13:01:43Z</time>
      </trkpt>
      <trkpt lat="36.836080" lon="-3.470542">
        <ele>1045.6</ele>
        <time>2020-12-27T13:01:59Z</time>
      </trkpt>
      <trkpt lat="36.836054" lon="-3.470782">
        <ele>1041.7</ele>
        <time>2020-12-27T13:02:21Z</time>
      </trkpt>
      <trkpt lat="36.835983" lon="-3.470987">
        <ele>1040.8</ele>
        <time>2020-12-27T13:02:37Z</time>
      </trkpt>
      <trkpt lat="36.835832" lon="-3.470934">
        <ele>1040.8</ele>
        <time>2020-12-27T13:03:11Z</time>
      </trkpt>
      <trkpt lat="36.835818" lon="-3.470693">
        <ele>1044.1</ele>
        <time>2020-12-27T13:04:10Z</time>
      </trkpt>
      <trkpt lat="36.835835" lon="-3.470595">
        <ele>1043.2</ele>
        <time>2020-12-27T13:07:07Z</time>
      </trkpt>
      <trkpt lat="36.835828" lon="-3.470732">
        <ele>1045.1</ele>
        <time>2020-12-27T13:07:51Z</time>
      </trkpt>
      <trkpt lat="36.835866" lon="-3.470866">
        <ele>1043.2</ele>
        <time>2020-12-27T13:11:10Z</time>
      </trkpt>
      <trkpt lat="36.835877" lon="-3.470881">
        <ele>1043.6</ele>
        <time>2020-12-27T13:13:28Z</time>
      </trkpt>
      <trkpt lat="36.835925" lon="-3.471081">
        <ele>1038.8</ele>
        <time>2020-12-27T13:14:54Z</time>
      </trkpt>
      <trkpt lat="36.835929" lon="-3.471318">
        <ele>1034.0</ele>
        <time>2020-12-27T13:15:24Z</time>
      </trkpt>
      <trkpt lat="36.835958" lon="-3.471419">
        <ele>1029.2</ele>
        <time>2020-12-27T13:18:04Z</time>
      </trkpt>
      <trkpt lat="36.835975" lon="-3.471389">
        <ele>1029.2</ele>
        <time>2020-12-27T13:25:01Z</time>
      </trkpt>
      <trkpt lat="36.835929" lon="-3.471397">
        <ele>1031.2</ele>
        <time>2020-12-27T13:30:59Z</time>
      </trkpt>
      <trkpt lat="36.835756" lon="-3.471423">
        <ele>1027.8</ele>
        <time>2020-12-27T13:31:27Z</time>
      </trkpt>
      <trkpt lat="36.835605" lon="-3.471296">
        <ele>1027.3</ele>
        <time>2020-12-27T13:31:43Z</time>
      </trkpt>
      <trkpt lat="36.835445" lon="-3.471214">
        <ele>1025.9</ele>
        <time>2020-12-27T13:31:58Z</time>
      </trkpt>
      <trkpt lat="36.835250" lon="-3.471238">
        <ele>1025.9</ele>
        <time>2020-12-27T13:32:13Z</time>
      </trkpt>
      <trkpt lat="36.835067" lon="-3.471239">
        <ele>1025.9</ele>
        <time>2020-12-27T13:32:27Z</time>
      </trkpt>
      <trkpt lat="36.834920" lon="-3.471384">
        <ele>1023.9</ele>
        <time>2020-12-27T13:32:43Z</time>
      </trkpt>
      <trkpt lat="36.834736" lon="-3.471468">
        <ele>1020.6</ele>
        <time>2020-12-27T13:32:59Z</time>
      </trkpt>
      <trkpt lat="36.834558" lon="-3.471540">
        <ele>1014.8</ele>
        <time>2020-12-27T13:33:20Z</time>
      </trkpt>
      <trkpt lat="36.834381" lon="-3.471589">
        <ele>1011.4</ele>
        <time>2020-12-27T13:33:34Z</time>
      </trkpt>
      <trkpt lat="36.834199" lon="-3.471639">
        <ele>1009.0</ele>
        <time>2020-12-27T13:33:50Z</time>
      </trkpt>
      <trkpt lat="36.834026" lon="-3.471710">
        <ele>1001.8</ele>
        <time>2020-12-27T13:34:06Z</time>
      </trkpt>
      <trkpt lat="36.833848" lon="-3.471770">
        <ele>998.5</ele>
        <time>2020-12-27T13:34:21Z</time>
      </trkpt>
      <trkpt lat="36.833662" lon="-3.471756">
        <ele>997.5</ele>
        <time>2020-12-27T13:34:35Z</time>
      </trkpt>
      <trkpt lat="36.833483" lon="-3.471827">
        <ele>995.6</ele>
        <time>2020-12-27T13:34:53Z</time>
      </trkpt>
      <trkpt lat="36.833506" lon="-3.472077">
        <ele>998.0</ele>
        <time>2020-12-27T13:35:10Z</time>
      </trkpt>
      <trkpt lat="36.833558" lon="-3.472307">
        <ele>999.4</ele>
        <time>2020-12-27T13:35:25Z</time>
      </trkpt>
      <trkpt lat="36.833596" lon="-3.472539">
        <ele>998.0</ele>
        <time>2020-12-27T13:35:39Z</time>
      </trkpt>
      <trkpt lat="36.833618" lon="-3.472781">
        <ele>997.5</ele>
        <time>2020-12-27T13:35:53Z</time>
      </trkpt>
      <trkpt lat="36.833664" lon="-3.473020">
        <ele>993.7</ele>
        <time>2020-12-27T13:36:08Z</time>
      </trkpt>
      <trkpt lat="36.833679" lon="-3.473261">
        <ele>992.2</ele>
        <time>2020-12-27T13:36:23Z</time>
      </trkpt>
      <trkpt lat="36.833647" lon="-3.473498">
        <ele>989.3</ele>
        <time>2020-12-27T13:36:38Z</time>
      </trkpt>
      <trkpt lat="36.833717" lon="-3.473493">
        <ele>985.0</ele>
        <time>2020-12-27T13:36:55Z</time>
      </trkpt>
      <trkpt lat="36.833726" lon="-3.473644">
        <ele>981.2</ele>
        <time>2020-12-27T13:37:11Z</time>
      </trkpt>
      <trkpt lat="36.833646" lon="-3.473846">
        <ele>978.8</ele>
        <time>2020-12-27T13:37:26Z</time>
      </trkpt>
      <trkpt lat="36.833551" lon="-3.474047">
        <ele>976.4</ele>
        <time>2020-12-27T13:37:44Z</time>
      </trkpt>
      <trkpt lat="36.833467" lon="-3.474250">
        <ele>974.9</ele>
        <time>2020-12-27T13:38:00Z</time>
      </trkpt>
      <trkpt lat="36.833435" lon="-3.474488">
        <ele>972.5</ele>
        <time>2020-12-27T13:38:16Z</time>
      </trkpt>
      <trkpt lat="36.833401" lon="-3.474724">
        <ele>968.7</ele>
        <time>2020-12-27T13:38:33Z</time>
      </trkpt>
      <trkpt lat="36.833367" lon="-3.474949">
        <ele>966.7</ele>
        <time>2020-12-27T13:38:48Z</time>
      </trkpt>
      <trkpt lat="36.833297" lon="-3.475178">
        <ele>963.9</ele>
        <time>2020-12-27T13:39:04Z</time>
      </trkpt>
      <trkpt lat="36.833300" lon="-3.475295">
        <ele>961.0</ele>
        <time>2020-12-27T13:39:21Z</time>
      </trkpt>
      <trkpt lat="36.833434" lon="-3.475173">
        <ele>957.1</ele>
        <time>2020-12-27T13:39:36Z</time>
      </trkpt>
      <trkpt lat="36.833576" lon="-3.475020">
        <ele>953.8</ele>
        <time>2020-12-27T13:39:58Z</time>
      </trkpt>
      <trkpt lat="36.833741" lon="-3.474903">
        <ele>950.4</ele>
        <time>2020-12-27T13:40:13Z</time>
      </trkpt>
      <trkpt lat="36.833909" lon="-3.474819">
        <ele>946.6</ele>
        <time>2020-12-27T13:40:32Z</time>
      </trkpt>
      <trkpt lat="36.834070" lon="-3.474706">
        <ele>942.7</ele>
        <time>2020-12-27T13:40:49Z</time>
      </trkpt>
      <trkpt lat="36.834256" lon="-3.474672">
        <ele>938.9</ele>
        <time>2020-12-27T13:41:05Z</time>
      </trkpt>
      <trkpt lat="36.834444" lon="-3.474646">
        <ele>936.9</ele>
        <time>2020-12-27T13:41:22Z</time>
      </trkpt>
      <trkpt lat="36.834433" lon="-3.474792">
        <ele>933.1</ele>
        <time>2020-12-27T13:41:42Z</time>
      </trkpt>
      <trkpt lat="36.834299" lon="-3.474959">
        <ele>928.3</ele>
        <time>2020-12-27T13:41:59Z</time>
      </trkpt>
      <trkpt lat="36.834268" lon="-3.475085">
        <ele>924.9</ele>
        <time>2020-12-27T13:42:21Z</time>
      </trkpt>
      <trkpt lat="36.834447" lon="-3.475009">
        <ele>923.0</ele>
        <time>2020-12-27T13:42:39Z</time>
      </trkpt>
      <trkpt lat="36.834628" lon="-3.474990">
        <ele>918.2</ele>
        <time>2020-12-27T13:42:57Z</time>
      </trkpt>
      <trkpt lat="36.834517" lon="-3.475170">
        <ele>917.2</ele>
        <time>2020-12-27T13:43:14Z</time>
      </trkpt>
      <trkpt lat="36.834410" lon="-3.475357">
        <ele>913.9</ele>
        <time>2020-12-27T13:43:32Z</time>
      </trkpt>
      <trkpt lat="36.834500" lon="-3.475323">
        <ele>911.5</ele>
        <time>2020-12-27T13:43:56Z</time>
      </trkpt>
      <trkpt lat="36.834675" lon="-3.475305">
        <ele>908.6</ele>
        <time>2020-12-27T13:44:12Z</time>
      </trkpt>
      <trkpt lat="36.834828" lon="-3.475195">
        <ele>905.7</ele>
        <time>2020-12-27T13:44:28Z</time>
      </trkpt>
      <trkpt lat="36.834919" lon="-3.474991">
        <ele>903.8</ele>
        <time>2020-12-27T13:44:49Z</time>
      </trkpt>
      <trkpt lat="36.834987" lon="-3.474790">
        <ele>899.9</ele>
        <time>2020-12-27T13:45:05Z</time>
      </trkpt>
      <trkpt lat="36.835087" lon="-3.474593">
        <ele>896.6</ele>
        <time>2020-12-27T13:45:20Z</time>
      </trkpt>
      <trkpt lat="36.835120" lon="-3.474368">
        <ele>892.2</ele>
        <time>2020-12-27T13:45:37Z</time>
      </trkpt>
      <trkpt lat="36.835184" lon="-3.474144">
        <ele>887.4</ele>
        <time>2020-12-27T13:45:53Z</time>
      </trkpt>
      <trkpt lat="36.835263" lon="-3.474107">
        <ele>881.2</ele>
        <time>2020-12-27T13:46:16Z</time>
      </trkpt>
      <trkpt lat="36.835345" lon="-3.474341">
        <ele>875.9</ele>
        <time>2020-12-27T13:46:44Z</time>
      </trkpt>
      <trkpt lat="36.835387" lon="-3.474446">
        <ele>870.1</ele>
        <time>2020-12-27T13:47:19Z</time>
      </trkpt>
      <trkpt lat="36.835467" lon="-3.474663">
        <ele>865.3</ele>
        <time>2020-12-27T13:47:33Z</time>
      </trkpt>
      <trkpt lat="36.835538" lon="-3.474876">
        <ele>861.0</ele>
        <time>2020-12-27T13:47:49Z</time>
      </trkpt>
      <trkpt lat="36.835586" lon="-3.475087">
        <ele>855.2</ele>
        <time>2020-12-27T13:48:08Z</time>
      </trkpt>
      <trkpt lat="36.835690" lon="-3.475150">
        <ele>845.6</ele>
        <time>2020-12-27T13:48:48Z</time>
      </trkpt>
      <trkpt lat="36.835750" lon="-3.475383">
        <ele>840.8</ele>
        <time>2020-12-27T13:49:07Z</time>
      </trkpt>
      <trkpt lat="36.835829" lon="-3.475588">
        <ele>836.0</ele>
        <time>2020-12-27T13:49:24Z</time>
      </trkpt>
      <trkpt lat="36.835860" lon="-3.475815">
        <ele>831.7</ele>
        <time>2020-12-27T13:49:41Z</time>
      </trkpt>
      <trkpt lat="36.835916" lon="-3.475953">
        <ele>826.4</ele>
        <time>2020-12-27T13:50:02Z</time>
      </trkpt>
      <trkpt lat="36.835986" lon="-3.475821">
        <ele>821.6</ele>
        <time>2020-12-27T13:50:21Z</time>
      </trkpt>
      <trkpt lat="36.836044" lon="-3.476055">
        <ele>815.8</ele>
        <time>2020-12-27T13:50:39Z</time>
      </trkpt>
      <trkpt lat="36.836108" lon="-3.476272">
        <ele>812.0</ele>
        <time>2020-12-27T13:50:56Z</time>
      </trkpt>
      <trkpt lat="36.836168" lon="-3.476505">
        <ele>808.1</ele>
        <time>2020-12-27T13:51:30Z</time>
      </trkpt>
      <trkpt lat="36.836212" lon="-3.476715">
        <ele>803.8</ele>
        <time>2020-12-27T13:51:45Z</time>
      </trkpt>
      <trkpt lat="36.836224" lon="-3.476664">
        <ele>798.5</ele>
        <time>2020-12-27T13:52:05Z</time>
      </trkpt>
      <trkpt lat="36.836257" lon="-3.476726">
        <ele>793.2</ele>
        <time>2020-12-27T13:52:33Z</time>
      </trkpt>
      <trkpt lat="36.836286" lon="-3.476960">
        <ele>785.5</ele>
        <time>2020-12-27T13:52:51Z</time>
      </trkpt>
      <trkpt lat="36.836318" lon="-3.477181">
        <ele>782.2</ele>
        <time>2020-12-27T13:53:08Z</time>
      </trkpt>
      <trkpt lat="36.836358" lon="-3.477346">
        <ele>776.4</ele>
        <time>2020-12-27T13:53:29Z</time>
      </trkpt>
      <trkpt lat="36.836367" lon="-3.477484">
        <ele>772.6</ele>
        <time>2020-12-27T13:53:50Z</time>
      </trkpt>
      <trkpt lat="36.836370" lon="-3.477676">
        <ele>767.3</ele>
        <time>2020-12-27T13:54:19Z</time>
      </trkpt>
      <trkpt lat="36.836516" lon="-3.477565">
        <ele>762.9</ele>
        <time>2020-12-27T13:54:37Z</time>
      </trkpt>
      <trkpt lat="36.836538" lon="-3.477758">
        <ele>757.2</ele>
        <time>2020-12-27T13:55:00Z</time>
      </trkpt>
      <trkpt lat="36.836520" lon="-3.477912">
        <ele>752.4</ele>
        <time>2020-12-27T13:55:22Z</time>
      </trkpt>
      <trkpt lat="36.836469" lon="-3.478007">
        <ele>746.6</ele>
        <time>2020-12-27T13:55:42Z</time>
      </trkpt>
      <trkpt lat="36.836364" lon="-3.478219">
        <ele>740.8</ele>
        <time>2020-12-27T13:56:05Z</time>
      </trkpt>
      <trkpt lat="36.836365" lon="-3.478440">
        <ele>737.9</ele>
        <time>2020-12-27T13:56:28Z</time>
      </trkpt>
      <trkpt lat="36.836352" lon="-3.478671">
        <ele>734.1</ele>
        <time>2020-12-27T13:56:44Z</time>
      </trkpt>
      <trkpt lat="36.836369" lon="-3.478894">
        <ele>730.3</ele>
        <time>2020-12-27T13:56:59Z</time>
      </trkpt>
      <trkpt lat="36.836384" lon="-3.479127">
        <ele>725.5</ele>
        <time>2020-12-27T13:57:14Z</time>
      </trkpt>
      <trkpt lat="36.836416" lon="-3.479364">
        <ele>723.0</ele>
        <time>2020-12-27T13:57:28Z</time>
      </trkpt>
      <trkpt lat="36.836397" lon="-3.479590">
        <ele>721.6</ele>
        <time>2020-12-27T13:57:44Z</time>
      </trkpt>
      <trkpt lat="36.836384" lon="-3.479820">
        <ele>716.8</ele>
        <time>2020-12-27T13:58:01Z</time>
      </trkpt>
      <trkpt lat="36.836391" lon="-3.480025">
        <ele>713.0</ele>
        <time>2020-12-27T13:58:17Z</time>
      </trkpt>
      <trkpt lat="36.836332" lon="-3.480255">
        <ele>709.1</ele>
        <time>2020-12-27T13:58:32Z</time>
      </trkpt>
      <trkpt lat="36.836260" lon="-3.480475">
        <ele>705.7</ele>
        <time>2020-12-27T13:58:47Z</time>
      </trkpt>
      <trkpt lat="36.836265" lon="-3.480714">
        <ele>703.3</ele>
        <time>2020-12-27T13:59:02Z</time>
      </trkpt>
      <trkpt lat="36.836254" lon="-3.480938">
        <ele>699.5</ele>
        <time>2020-12-27T13:59:18Z</time>
      </trkpt>
      <trkpt lat="36.836154" lon="-3.481150">
        <ele>698.5</ele>
        <time>2020-12-27T13:59:33Z</time>
      </trkpt>
      <trkpt lat="36.836142" lon="-3.481246">
        <ele>696.1</ele>
        <time>2020-12-27T13:59:51Z</time>
      </trkpt>
      <trkpt lat="36.836049" lon="-3.481452">
        <ele>690.4</ele>
        <time>2020-12-27T14:00:10Z</time>
      </trkpt>
      <trkpt lat="36.835958" lon="-3.481658">
        <ele>685.6</ele>
        <time>2020-12-27T14:00:31Z</time>
      </trkpt>
      <trkpt lat="36.835798" lon="-3.481776">
        <ele>683.2</ele>
        <time>2020-12-27T14:00:46Z</time>
      </trkpt>
      <trkpt lat="36.835608" lon="-3.481753">
        <ele>679.8</ele>
        <time>2020-12-27T14:01:02Z</time>
      </trkpt>
      <trkpt lat="36.835417" lon="-3.481717">
        <ele>674.0</ele>
        <time>2020-12-27T14:01:19Z</time>
      </trkpt>
      <trkpt lat="36.835286" lon="-3.481921">
        <ele>673.1</ele>
        <time>2020-12-27T14:01:34Z</time>
      </trkpt>
      <trkpt lat="36.835217" lon="-3.482137">
        <ele>665.9</ele>
        <time>2020-12-27T14:01:52Z</time>
      </trkpt>
      <trkpt lat="36.835122" lon="-3.482317">
        <ele>660.1</ele>
        <time>2020-12-27T14:02:18Z</time>
      </trkpt>
      <trkpt lat="36.835285" lon="-3.482223">
        <ele>657.7</ele>
        <time>2020-12-27T14:02:38Z</time>
      </trkpt>
      <trkpt lat="36.835212" lon="-3.482392">
        <ele>655.3</ele>
        <time>2020-12-27T14:02:56Z</time>
      </trkpt>
      <trkpt lat="36.835082" lon="-3.482589">
        <ele>650.5</ele>
        <time>2020-12-27T14:03:14Z</time>
      </trkpt>
      <trkpt lat="36.835288" lon="-3.482548">
        <ele>645.2</ele>
        <time>2020-12-27T14:03:45Z</time>
      </trkpt>
      <trkpt lat="36.835221" lon="-3.482764">
        <ele>639.9</ele>
        <time>2020-12-27T14:04:03Z</time>
      </trkpt>
      <trkpt lat="36.835155" lon="-3.482993">
        <ele>633.6</ele>
        <time>2020-12-27T14:04:22Z</time>
      </trkpt>
      <trkpt lat="36.835105" lon="-3.483197">
        <ele>628.4</ele>
        <time>2020-12-27T14:04:52Z</time>
      </trkpt>
      <trkpt lat="36.834960" lon="-3.483368">
        <ele>623.1</ele>
        <time>2020-12-27T14:05:08Z</time>
      </trkpt>
      <trkpt lat="36.834822" lon="-3.483527">
        <ele>620.2</ele>
        <time>2020-12-27T14:05:25Z</time>
      </trkpt>
      <trkpt lat="36.835008" lon="-3.483498">
        <ele>616.8</ele>
        <time>2020-12-27T14:05:44Z</time>
      </trkpt>
      <trkpt lat="36.835189" lon="-3.483434">
        <ele>613.0</ele>
        <time>2020-12-27T14:06:02Z</time>
      </trkpt>
      <trkpt lat="36.835102" lon="-3.483641">
        <ele>607.7</ele>
        <time>2020-12-27T14:06:22Z</time>
      </trkpt>
      <trkpt lat="36.834942" lon="-3.483785">
        <ele>606.2</ele>
        <time>2020-12-27T14:06:37Z</time>
      </trkpt>
      <trkpt lat="36.834805" lon="-3.483941">
        <ele>603.4</ele>
        <time>2020-12-27T14:06:55Z</time>
      </trkpt>
      <trkpt lat="36.834860" lon="-3.484016">
        <ele>599.5</ele>
        <time>2020-12-27T14:07:16Z</time>
      </trkpt>
      <trkpt lat="36.834867" lon="-3.484128">
        <ele>594.2</ele>
        <time>2020-12-27T14:07:33Z</time>
      </trkpt>
      <trkpt lat="36.834754" lon="-3.484320">
        <ele>589.4</ele>
        <time>2020-12-27T14:07:50Z</time>
      </trkpt>
      <trkpt lat="36.834614" lon="-3.484490">
        <ele>585.6</ele>
        <time>2020-12-27T14:08:06Z</time>
      </trkpt>
      <trkpt lat="36.834594" lon="-3.484654">
        <ele>582.2</ele>
        <time>2020-12-27T14:08:30Z</time>
      </trkpt>
      <trkpt lat="36.834719" lon="-3.484827">
        <ele>577.4</ele>
        <time>2020-12-27T14:08:50Z</time>
      </trkpt>
      <trkpt lat="36.834802" lon="-3.485025">
        <ele>573.6</ele>
        <time>2020-12-27T14:09:08Z</time>
      </trkpt>
      <trkpt lat="36.834832" lon="-3.485234">
        <ele>569.2</ele>
        <time>2020-12-27T14:09:28Z</time>
      </trkpt>
      <trkpt lat="36.834924" lon="-3.485445">
        <ele>563.5</ele>
        <time>2020-12-27T14:09:50Z</time>
      </trkpt>
      <trkpt lat="36.834908" lon="-3.485600">
        <ele>561.1</ele>
        <time>2020-12-27T14:10:35Z</time>
      </trkpt>
      <trkpt lat="36.835033" lon="-3.485738">
        <ele>554.3</ele>
        <time>2020-12-27T14:11:18Z</time>
      </trkpt>
      <trkpt lat="36.835169" lon="-3.485910">
        <ele>549.5</ele>
        <time>2020-12-27T14:11:37Z</time>
      </trkpt>
      <trkpt lat="36.835161" lon="-3.486127">
        <ele>545.2</ele>
        <time>2020-12-27T14:11:52Z</time>
      </trkpt>
      <trkpt lat="36.835139" lon="-3.486347">
        <ele>542.3</ele>
        <time>2020-12-27T14:12:06Z</time>
      </trkpt>
      <trkpt lat="36.835175" lon="-3.486584">
        <ele>538.0</ele>
        <time>2020-12-27T14:12:21Z</time>
      </trkpt>
      <trkpt lat="36.835192" lon="-3.486814">
        <ele>535.6</ele>
        <time>2020-12-27T14:12:39Z</time>
      </trkpt>
      <trkpt lat="36.835210" lon="-3.487046">
        <ele>532.7</ele>
        <time>2020-12-27T14:12:55Z</time>
      </trkpt>
      <trkpt lat="36.835225" lon="-3.487279">
        <ele>528.9</ele>
        <time>2020-12-27T14:13:12Z</time>
      </trkpt>
      <trkpt lat="36.835161" lon="-3.487506">
        <ele>525.5</ele>
        <time>2020-12-27T14:13:28Z</time>
      </trkpt>
      <trkpt lat="36.835025" lon="-3.487613">
        <ele>526.0</ele>
        <time>2020-12-27T14:14:02Z</time>
      </trkpt>
      <trkpt lat="36.835080" lon="-3.487685">
        <ele>523.6</ele>
        <time>2020-12-27T14:15:38Z</time>
      </trkpt>
      <trkpt lat="36.835155" lon="-3.487906">
        <ele>518.8</ele>
        <time>2020-12-27T14:15:57Z</time>
      </trkpt>
      <trkpt lat="36.835214" lon="-3.488121">
        <ele>514.9</ele>
        <time>2020-12-27T14:16:13Z</time>
      </trkpt>
      <trkpt lat="36.835304" lon="-3.488328">
        <ele>510.1</ele>
        <time>2020-12-27T14:16:30Z</time>
      </trkpt>
      <trkpt lat="36.835428" lon="-3.488544">
        <ele>506.8</ele>
        <time>2020-12-27T14:16:49Z</time>
      </trkpt>
      <trkpt lat="36.835501" lon="-3.488771">
        <ele>501.9</ele>
        <time>2020-12-27T14:17:05Z</time>
      </trkpt>
      <trkpt lat="36.835345" lon="-3.488919">
        <ele>499.5</ele>
        <time>2020-12-27T14:17:21Z</time>
      </trkpt>
      <trkpt lat="36.835156" lon="-3.488878">
        <ele>501.5</ele>
        <time>2020-12-27T14:17:39Z</time>
      </trkpt>
      <trkpt lat="36.834965" lon="-3.488893">
        <ele>502.9</ele>
        <time>2020-12-27T14:17:54Z</time>
      </trkpt>
      <trkpt lat="36.834771" lon="-3.488912">
        <ele>503.4</ele>
        <time>2020-12-27T14:18:09Z</time>
      </trkpt>
      <trkpt lat="36.834583" lon="-3.488916">
        <ele>504.3</ele>
        <time>2020-12-27T14:18:23Z</time>
      </trkpt>
      <trkpt lat="36.834392" lon="-3.488861">
        <ele>504.3</ele>
        <time>2020-12-27T14:18:38Z</time>
      </trkpt>
      <trkpt lat="36.834199" lon="-3.488894">
        <ele>504.8</ele>
        <time>2020-12-27T14:18:53Z</time>
      </trkpt>
      <trkpt lat="36.834013" lon="-3.488980">
        <ele>505.8</ele>
        <time>2020-12-27T14:19:08Z</time>
      </trkpt>
      <trkpt lat="36.833880" lon="-3.489166">
        <ele>504.8</ele>
        <time>2020-12-27T14:19:21Z</time>
      </trkpt>
      <trkpt lat="36.833972" lon="-3.489383">
        <ele>505.3</ele>
        <time>2020-12-27T14:19:35Z</time>
      </trkpt>
      <trkpt lat="36.834034" lon="-3.489612">
        <ele>505.3</ele>
        <time>2020-12-27T14:19:49Z</time>
      </trkpt>
      <trkpt lat="36.834043" lon="-3.489842">
        <ele>505.8</ele>
        <time>2020-12-27T14:20:03Z</time>
      </trkpt>
      <trkpt lat="36.834096" lon="-3.490049">
        <ele>504.8</ele>
        <time>2020-12-27T14:20:21Z</time>
      </trkpt>
      <trkpt lat="36.834108" lon="-3.490271">
        <ele>505.8</ele>
        <time>2020-12-27T14:20:34Z</time>
      </trkpt>
      <trkpt lat="36.833999" lon="-3.490472">
        <ele>507.7</ele>
        <time>2020-12-27T14:20:48Z</time>
      </trkpt>
      <trkpt lat="36.833856" lon="-3.490607">
        <ele>507.7</ele>
        <time>2020-12-27T14:21:01Z</time>
      </trkpt>
      <trkpt lat="36.833697" lon="-3.490724">
        <ele>511.1</ele>
        <time>2020-12-27T14:21:15Z</time>
      </trkpt>
      <trkpt lat="36.833514" lon="-3.490805">
        <ele>511.1</ele>
        <time>2020-12-27T14:21:30Z</time>
      </trkpt>
      <trkpt lat="36.833335" lon="-3.490872">
        <ele>512.5</ele>
        <time>2020-12-27T14:21:45Z</time>
      </trkpt>
      <trkpt lat="36.833151" lon="-3.490954">
        <ele>513.0</ele>
        <time>2020-12-27T14:22:00Z</time>
      </trkpt>
      <trkpt lat="36.832965" lon="-3.491036">
        <ele>513.0</ele>
        <time>2020-12-27T14:22:14Z</time>
      </trkpt>
      <trkpt lat="36.832789" lon="-3.491104">
        <ele>512.5</ele>
        <time>2020-12-27T14:22:28Z</time>
      </trkpt>
      <trkpt lat="36.832604" lon="-3.491167">
        <ele>510.1</ele>
        <time>2020-12-27T14:22:43Z</time>
      </trkpt>
      <trkpt lat="36.832422" lon="-3.491255">
        <ele>509.2</ele>
        <time>2020-12-27T14:22:58Z</time>
      </trkpt>
      <trkpt lat="36.832342" lon="-3.491476">
        <ele>507.2</ele>
        <time>2020-12-27T14:23:12Z</time>
      </trkpt>
      <trkpt lat="36.832164" lon="-3.491495">
        <ele>511.6</ele>
        <time>2020-12-27T14:23:29Z</time>
      </trkpt>
      <trkpt lat="36.832007" lon="-3.491357">
        <ele>514.9</ele>
        <time>2020-12-27T14:23:47Z</time>
      </trkpt>
      <trkpt lat="36.831859" lon="-3.491207">
        <ele>515.9</ele>
        <time>2020-12-27T14:24:05Z</time>
      </trkpt>
      <trkpt lat="36.831727" lon="-3.491035">
        <ele>518.8</ele>
        <time>2020-12-27T14:24:23Z</time>
      </trkpt>
      <trkpt lat="36.831582" lon="-3.490888">
        <ele>519.7</ele>
        <time>2020-12-27T14:24:41Z</time>
      </trkpt>
      <trkpt lat="36.831437" lon="-3.490730">
        <ele>524.5</ele>
        <time>2020-12-27T14:25:04Z</time>
      </trkpt>
      <trkpt lat="36.831322" lon="-3.490541">
        <ele>527.9</ele>
        <time>2020-12-27T14:25:28Z</time>
      </trkpt>
      <trkpt lat="36.831179" lon="-3.490376">
        <ele>532.7</ele>
        <time>2020-12-27T14:25:51Z</time>
      </trkpt>
      <trkpt lat="36.831025" lon="-3.490241">
        <ele>535.6</ele>
        <time>2020-12-27T14:26:13Z</time>
      </trkpt>
      <trkpt lat="36.830936" lon="-3.490423">
        <ele>537.5</ele>
        <time>2020-12-27T14:26:36Z</time>
      </trkpt>
      <trkpt lat="36.830950" lon="-3.490657">
        <ele>540.9</ele>
        <time>2020-12-27T14:27:09Z</time>
      </trkpt>
      <trkpt lat="36.830945" lon="-3.490894">
        <ele>544.2</ele>
        <time>2020-12-27T14:27:29Z</time>
      </trkpt>
      <trkpt lat="36.830918" lon="-3.491121">
        <ele>545.7</ele>
        <time>2020-12-27T14:27:48Z</time>
      </trkpt>
      <trkpt lat="36.830898" lon="-3.491359">
        <ele>548.1</ele>
        <time>2020-12-27T14:28:08Z</time>
      </trkpt>
      <trkpt lat="36.830890" lon="-3.491588">
        <ele>551.0</ele>
        <time>2020-12-27T14:28:26Z</time>
      </trkpt>
      <trkpt lat="36.830803" lon="-3.491788">
        <ele>551.9</ele>
        <time>2020-12-27T14:28:44Z</time>
      </trkpt>
      <trkpt lat="36.830659" lon="-3.491930">
        <ele>554.8</ele>
        <time>2020-12-27T14:29:04Z</time>
      </trkpt>
      <trkpt lat="36.830533" lon="-3.491805">
        <ele>556.3</ele>
        <time>2020-12-27T14:29:24Z</time>
      </trkpt>
      <trkpt lat="36.830429" lon="-3.491609">
        <ele>559.1</ele>
        <time>2020-12-27T14:29:45Z</time>
      </trkpt>
      <trkpt lat="36.830345" lon="-3.491396">
        <ele>563.0</ele>
        <time>2020-12-27T14:30:07Z</time>
      </trkpt>
      <trkpt lat="36.830257" lon="-3.491190">
        <ele>564.9</ele>
        <time>2020-12-27T14:30:31Z</time>
      </trkpt>
      <trkpt lat="36.830164" lon="-3.490992">
        <ele>570.7</ele>
        <time>2020-12-27T14:30:51Z</time>
      </trkpt>
      <trkpt lat="36.830034" lon="-3.490835">
        <ele>572.6</ele>
        <time>2020-12-27T14:31:17Z</time>
      </trkpt>
      <trkpt lat="36.829848" lon="-3.490758">
        <ele>576.9</ele>
        <time>2020-12-27T14:31:39Z</time>
      </trkpt>
      <trkpt lat="36.829674" lon="-3.490682">
        <ele>577.4</ele>
        <time>2020-12-27T14:31:58Z</time>
      </trkpt>
      <trkpt lat="36.829484" lon="-3.490676">
        <ele>577.9</ele>
        <time>2020-12-27T14:32:16Z</time>
      </trkpt>
      <trkpt lat="36.829308" lon="-3.490616">
        <ele>579.3</ele>
        <time>2020-12-27T14:32:34Z</time>
      </trkpt>
      <trkpt lat="36.829122" lon="-3.490627">
        <ele>580.8</ele>
        <time>2020-12-27T14:32:51Z</time>
      </trkpt>
      <trkpt lat="36.828957" lon="-3.490724">
        <ele>580.8</ele>
        <time>2020-12-27T14:33:09Z</time>
      </trkpt>
      <trkpt lat="36.828857" lon="-3.490923">
        <ele>582.7</ele>
        <time>2020-12-27T14:33:26Z</time>
      </trkpt>
      <trkpt lat="36.828784" lon="-3.491125">
        <ele>585.6</ele>
        <time>2020-12-27T14:34:05Z</time>
      </trkpt>
      <trkpt lat="36.828665" lon="-3.491317">
        <ele>586.1</ele>
        <time>2020-12-27T14:34:22Z</time>
      </trkpt>
      <trkpt lat="36.828486" lon="-3.491386">
        <ele>588.9</ele>
        <time>2020-12-27T14:34:40Z</time>
      </trkpt>
      <trkpt lat="36.828304" lon="-3.491360">
        <ele>590.9</ele>
        <time>2020-12-27T14:35:00Z</time>
      </trkpt>
      <trkpt lat="36.828235" lon="-3.491523">
        <ele>588.9</ele>
        <time>2020-12-27T14:35:57Z</time>
      </trkpt>
      <trkpt lat="36.828252" lon="-3.491765">
        <ele>585.1</ele>
        <time>2020-12-27T14:36:22Z</time>
      </trkpt>
      <trkpt lat="36.828266" lon="-3.492011">
        <ele>580.3</ele>
        <time>2020-12-27T14:36:51Z</time>
      </trkpt>
      <trkpt lat="36.828286" lon="-3.492240">
        <ele>576.4</ele>
        <time>2020-12-27T14:37:17Z</time>
      </trkpt>
      <trkpt lat="36.828318" lon="-3.492467">
        <ele>575.5</ele>
        <time>2020-12-27T14:37:42Z</time>
      </trkpt>
      <trkpt lat="36.828325" lon="-3.492702">
        <ele>572.1</ele>
        <time>2020-12-27T14:38:03Z</time>
      </trkpt>
      <trkpt lat="36.828277" lon="-3.492913">
        <ele>568.3</ele>
        <time>2020-12-27T14:38:22Z</time>
      </trkpt>
      <trkpt lat="36.828172" lon="-3.493102">
        <ele>565.9</ele>
        <time>2020-12-27T14:38:39Z</time>
      </trkpt>
      <trkpt lat="36.828100" lon="-3.493311">
        <ele>563.0</ele>
        <time>2020-12-27T14:38:56Z</time>
      </trkpt>
      <trkpt lat="36.828015" lon="-3.493514">
        <ele>559.1</ele>
        <time>2020-12-27T14:39:12Z</time>
      </trkpt>
      <trkpt lat="36.827947" lon="-3.493728">
        <ele>554.8</ele>
        <time>2020-12-27T14:39:29Z</time>
      </trkpt>
      <trkpt lat="36.827934" lon="-3.493953">
        <ele>549.5</ele>
        <time>2020-12-27T14:39:53Z</time>
      </trkpt>
      <trkpt lat="36.828031" lon="-3.494160">
        <ele>546.2</ele>
        <time>2020-12-27T14:40:11Z</time>
      </trkpt>
      <trkpt lat="36.828129" lon="-3.494367">
        <ele>542.3</ele>
        <time>2020-12-27T14:40:28Z</time>
      </trkpt>
      <trkpt lat="36.828215" lon="-3.494571">
        <ele>539.9</ele>
        <time>2020-12-27T14:40:48Z</time>
      </trkpt>
      <trkpt lat="36.828335" lon="-3.494694">
        <ele>536.1</ele>
        <time>2020-12-27T14:41:37Z</time>
      </trkpt>
      <trkpt lat="36.828447" lon="-3.494880">
        <ele>530.8</ele>
        <time>2020-12-27T14:41:58Z</time>
      </trkpt>
      <trkpt lat="36.828571" lon="-3.495069">
        <ele>527.4</ele>
        <time>2020-12-27T14:42:19Z</time>
      </trkpt>
      <trkpt lat="36.828639" lon="-3.495280">
        <ele>526.9</ele>
        <time>2020-12-27T14:42:35Z</time>
      </trkpt>
      <trkpt lat="36.828709" lon="-3.495488">
        <ele>526.9</ele>
        <time>2020-12-27T14:42:53Z</time>
      </trkpt>
      <trkpt lat="36.828785" lon="-3.495643">
        <ele>525.5</ele>
        <time>2020-12-27T14:43:46Z</time>
      </trkpt>
      <trkpt lat="36.828856" lon="-3.495857">
        <ele>523.6</ele>
        <time>2020-12-27T14:44:02Z</time>
      </trkpt>
      <trkpt lat="36.828937" lon="-3.496062">
        <ele>520.2</ele>
        <time>2020-12-27T14:44:18Z</time>
      </trkpt>
      <trkpt lat="36.828980" lon="-3.496232">
        <ele>518.8</ele>
        <time>2020-12-27T14:44:53Z</time>
      </trkpt>
      <trkpt lat="36.828843" lon="-3.496379">
        <ele>517.3</ele>
        <time>2020-12-27T14:45:13Z</time>
      </trkpt>
      <trkpt lat="36.828663" lon="-3.496458">
        <ele>514.0</ele>
        <time>2020-12-27T14:45:35Z</time>
      </trkpt>
      <trkpt lat="36.828481" lon="-3.496467">
        <ele>511.1</ele>
        <time>2020-12-27T14:45:53Z</time>
      </trkpt>
      <trkpt lat="36.828287" lon="-3.496460">
        <ele>510.1</ele>
        <time>2020-12-27T14:46:10Z</time>
      </trkpt>
      <trkpt lat="36.828106" lon="-3.496412">
        <ele>506.8</ele>
        <time>2020-12-27T14:46:26Z</time>
      </trkpt>
      <trkpt lat="36.827919" lon="-3.496371">
        <ele>504.3</ele>
        <time>2020-12-27T14:46:45Z</time>
      </trkpt>
      <trkpt lat="36.827725" lon="-3.496384">
        <ele>501.5</ele>
        <time>2020-12-27T14:47:01Z</time>
      </trkpt>
      <trkpt lat="36.827530" lon="-3.496402">
        <ele>501.0</ele>
        <time>2020-12-27T14:47:16Z</time>
      </trkpt>
      <trkpt lat="36.827362" lon="-3.496514">
        <ele>496.2</ele>
        <time>2020-12-27T14:47:32Z</time>
      </trkpt>
      <trkpt lat="36.827215" lon="-3.496644">
        <ele>492.8</ele>
        <time>2020-12-27T14:47:49Z</time>
      </trkpt>
      <trkpt lat="36.827031" lon="-3.496685">
        <ele>490.9</ele>
        <time>2020-12-27T14:48:06Z</time>
      </trkpt>
      <trkpt lat="36.826847" lon="-3.496686">
        <ele>485.1</ele>
        <time>2020-12-27T14:48:26Z</time>
      </trkpt>
      <trkpt lat="36.826660" lon="-3.496651">
        <ele>483.2</ele>
        <time>2020-12-27T14:48:42Z</time>
      </trkpt>
      <trkpt lat="36.826473" lon="-3.496647">
        <ele>481.8</ele>
        <time>2020-12-27T14:48:57Z</time>
      </trkpt>
      <trkpt lat="36.826285" lon="-3.496637">
        <ele>481.8</ele>
        <time>2020-12-27T14:49:11Z</time>
      </trkpt>
      <trkpt lat="36.826104" lon="-3.496698">
        <ele>479.4</ele>
        <time>2020-12-27T14:49:25Z</time>
      </trkpt>
      <trkpt lat="36.825933" lon="-3.496777">
        <ele>478.4</ele>
        <time>2020-12-27T14:49:39Z</time>
      </trkpt>
      <trkpt lat="36.825785" lon="-3.496911">
        <ele>475.5</ele>
        <time>2020-12-27T14:49:54Z</time>
      </trkpt>
      <trkpt lat="36.825755" lon="-3.496887">
        <ele>474.5</ele>
        <time>2020-12-27T14:52:07Z</time>
      </trkpt>
      <trkpt lat="36.825725" lon="-3.496883">
        <ele>473.1</ele>
        <time>2020-12-27T14:54:29Z</time>
      </trkpt>
      <trkpt lat="36.825582" lon="-3.496970">
        <ele>469.7</ele>
        <time>2020-12-27T14:55:12Z</time>
      </trkpt>
      <trkpt lat="36.825428" lon="-3.497067">
        <ele>464.9</ele>
        <time>2020-12-27T14:55:50Z</time>
      </trkpt>
      <trkpt lat="36.825268" lon="-3.497164">
        <ele>462.1</ele>
        <time>2020-12-27T14:57:54Z</time>
      </trkpt>
      <trkpt lat="36.825235" lon="-3.497380">
        <ele>458.7</ele>
        <time>2020-12-27T14:58:18Z</time>
      </trkpt>
      <trkpt lat="36.825281" lon="-3.497598">
        <ele>453.9</ele>
        <time>2020-12-27T14:58:40Z</time>
      </trkpt>
      <trkpt lat="36.825268" lon="-3.497821">
        <ele>447.2</ele>
        <time>2020-12-27T14:59:05Z</time>
      </trkpt>
      <trkpt lat="36.825325" lon="-3.498039">
        <ele>443.8</ele>
        <time>2020-12-27T14:59:31Z</time>
      </trkpt>
      <trkpt lat="36.825359" lon="-3.498269">
        <ele>438.0</ele>
        <time>2020-12-27T14:59:58Z</time>
      </trkpt>
      <trkpt lat="36.825236" lon="-3.498428">
        <ele>433.2</ele>
        <time>2020-12-27T15:00:20Z</time>
      </trkpt>
      <trkpt lat="36.825077" lon="-3.498561">
        <ele>428.4</ele>
        <time>2020-12-27T15:00:40Z</time>
      </trkpt>
      <trkpt lat="36.824938" lon="-3.498706">
        <ele>425.5</ele>
        <time>2020-12-27T15:01:06Z</time>
      </trkpt>
      <trkpt lat="36.824762" lon="-3.498799">
        <ele>422.6</ele>
        <time>2020-12-27T15:01:22Z</time>
      </trkpt>
      <trkpt lat="36.824562" lon="-3.498829">
        <ele>419.3</ele>
        <time>2020-12-27T15:01:39Z</time>
      </trkpt>
      <trkpt lat="36.824362" lon="-3.498852">
        <ele>414.9</ele>
        <time>2020-12-27T15:01:56Z</time>
      </trkpt>
      <trkpt lat="36.824191" lon="-3.498925">
        <ele>411.1</ele>
        <time>2020-12-27T15:02:17Z</time>
      </trkpt>
      <trkpt lat="36.824123" lon="-3.499152">
        <ele>408.7</ele>
        <time>2020-12-27T15:02:33Z</time>
      </trkpt>
      <trkpt lat="36.824061" lon="-3.499382">
        <ele>407.3</ele>
        <time>2020-12-27T15:02:51Z</time>
      </trkpt>
      <trkpt lat="36.823990" lon="-3.499611">
        <ele>403.9</ele>
        <time>2020-12-27T15:03:06Z</time>
      </trkpt>
      <trkpt lat="36.823888" lon="-3.499780">
        <ele>402.4</ele>
        <time>2020-12-27T15:03:32Z</time>
      </trkpt>
      <trkpt lat="36.823796" lon="-3.499987">
        <ele>402.4</ele>
        <time>2020-12-27T15:03:48Z</time>
      </trkpt>
      <trkpt lat="36.823650" lon="-3.500062">
        <ele>403.9</ele>
        <time>2020-12-27T15:04:06Z</time>
      </trkpt>
      <trkpt lat="36.823493" lon="-3.499938">
        <ele>406.3</ele>
        <time>2020-12-27T15:04:22Z</time>
      </trkpt>
      <trkpt lat="36.823311" lon="-3.499909">
        <ele>408.2</ele>
        <time>2020-12-27T15:04:38Z</time>
      </trkpt>
      <trkpt lat="36.823135" lon="-3.499856">
        <ele>409.2</ele>
        <time>2020-12-27T15:04:55Z</time>
      </trkpt>
      <trkpt lat="36.822977" lon="-3.499758">
        <ele>409.7</ele>
        <time>2020-12-27T15:05:15Z</time>
      </trkpt>
      <trkpt lat="36.822800" lon="-3.499715">
        <ele>409.7</ele>
        <time>2020-12-27T15:05:38Z</time>
      </trkpt>
      <trkpt lat="36.822628" lon="-3.499718">
        <ele>413.5</ele>
        <time>2020-12-27T15:05:55Z</time>
      </trkpt>
      <trkpt lat="36.822449" lon="-3.499675">
        <ele>415.9</ele>
        <time>2020-12-27T15:06:17Z</time>
      </trkpt>
      <trkpt lat="36.822269" lon="-3.499621">
        <ele>415.4</ele>
        <time>2020-12-27T15:06:38Z</time>
      </trkpt>
      <trkpt lat="36.822092" lon="-3.499559">
        <ele>417.3</ele>
        <time>2020-12-27T15:06:55Z</time>
      </trkpt>
      <trkpt lat="36.821930" lon="-3.499471">
        <ele>418.8</ele>
        <time>2020-12-27T15:07:12Z</time>
      </trkpt>
      <trkpt lat="36.821755" lon="-3.499418">
        <ele>421.7</ele>
        <time>2020-12-27T15:07:29Z</time>
      </trkpt>
      <trkpt lat="36.821596" lon="-3.499513">
        <ele>421.2</ele>
        <time>2020-12-27T15:07:44Z</time>
      </trkpt>
      <trkpt lat="36.821421" lon="-3.499591">
        <ele>424.6</ele>
        <time>2020-12-27T15:08:03Z</time>
      </trkpt>
      <trkpt lat="36.821239" lon="-3.499623">
        <ele>425.5</ele>
        <time>2020-12-27T15:08:21Z</time>
      </trkpt>
      <trkpt lat="36.821116" lon="-3.499738">
        <ele>427.9</ele>
        <time>2020-12-27T15:08:39Z</time>
      </trkpt>
      <trkpt lat="36.821251" lon="-3.499880">
        <ele>429.4</ele>
        <time>2020-12-27T15:09:06Z</time>
      </trkpt>
      <trkpt lat="36.821418" lon="-3.499975">
        <ele>432.2</ele>
        <time>2020-12-27T15:09:27Z</time>
      </trkpt>
      <trkpt lat="36.821354" lon="-3.500005">
        <ele>434.7</ele>
        <time>2020-12-27T15:09:48Z</time>
      </trkpt>
      <trkpt lat="36.821171" lon="-3.499937">
        <ele>434.2</ele>
        <time>2020-12-27T15:10:06Z</time>
      </trkpt>
      <trkpt lat="36.820999" lon="-3.499864">
        <ele>432.7</ele>
        <time>2020-12-27T15:10:20Z</time>
      </trkpt>
      <trkpt lat="36.820840" lon="-3.499757">
        <ele>432.2</ele>
        <time>2020-12-27T15:10:35Z</time>
      </trkpt>
      <trkpt lat="36.820690" lon="-3.499640">
        <ele>431.3</ele>
        <time>2020-12-27T15:10:50Z</time>
      </trkpt>
      <trkpt lat="36.820506" lon="-3.499609">
        <ele>434.7</ele>
        <time>2020-12-27T15:11:09Z</time>
      </trkpt>
      <trkpt lat="36.820345" lon="-3.499518">
        <ele>439.9</ele>
        <time>2020-12-27T15:11:29Z</time>
      </trkpt>
      <trkpt lat="36.820207" lon="-3.499427">
        <ele>442.8</ele>
        <time>2020-12-27T15:12:16Z</time>
      </trkpt>
      <trkpt lat="36.820058" lon="-3.499305">
        <ele>444.7</ele>
        <time>2020-12-27T15:12:35Z</time>
      </trkpt>
      <trkpt lat="36.819952" lon="-3.499115">
        <ele>445.7</ele>
        <time>2020-12-27T15:12:54Z</time>
      </trkpt>
      <trkpt lat="36.819794" lon="-3.498984">
        <ele>446.2</ele>
        <time>2020-12-27T15:13:15Z</time>
      </trkpt>
      <trkpt lat="36.819676" lon="-3.498863">
        <ele>447.6</ele>
        <time>2020-12-27T15:13:40Z</time>
      </trkpt>
      <trkpt lat="36.819645" lon="-3.498657">
        <ele>453.4</ele>
        <time>2020-12-27T15:14:14Z</time>
      </trkpt>
      <trkpt lat="36.819570" lon="-3.498484">
        <ele>455.3</ele>
        <time>2020-12-27T15:14:53Z</time>
      </trkpt>
      <trkpt lat="36.819534" lon="-3.498320">
        <ele>459.6</ele>
        <time>2020-12-27T15:15:58Z</time>
      </trkpt>
      <trkpt lat="36.819458" lon="-3.498274">
        <ele>469.3</ele>
        <time>2020-12-27T15:17:16Z</time>
      </trkpt>
      <trkpt lat="36.819320" lon="-3.498372">
        <ele>471.7</ele>
        <time>2020-12-27T15:17:50Z</time>
      </trkpt>
      <trkpt lat="36.819139" lon="-3.498367">
        <ele>468.3</ele>
        <time>2020-12-27T15:18:17Z</time>
      </trkpt>
      <trkpt lat="36.818997" lon="-3.498379">
        <ele>470.7</ele>
        <time>2020-12-27T15:18:47Z</time>
      </trkpt>
      <trkpt lat="36.818953" lon="-3.498594">
        <ele>471.7</ele>
        <time>2020-12-27T15:19:08Z</time>
      </trkpt>
      <trkpt lat="36.819124" lon="-3.498715">
        <ele>469.7</ele>
        <time>2020-12-27T15:19:35Z</time>
      </trkpt>
      <trkpt lat="36.819203" lon="-3.498923">
        <ele>469.7</ele>
        <time>2020-12-27T15:19:51Z</time>
      </trkpt>
      <trkpt lat="36.819236" lon="-3.499152">
        <ele>471.7</ele>
        <time>2020-12-27T15:20:09Z</time>
      </trkpt>
      <trkpt lat="36.819296" lon="-3.499375">
        <ele>471.7</ele>
        <time>2020-12-27T15:20:25Z</time>
      </trkpt>
      <trkpt lat="36.819367" lon="-3.499586">
        <ele>471.2</ele>
        <time>2020-12-27T15:20:40Z</time>
      </trkpt>
      <trkpt lat="36.819460" lon="-3.499773">
        <ele>473.6</ele>
        <time>2020-12-27T15:20:58Z</time>
      </trkpt>
      <trkpt lat="36.819417" lon="-3.499945">
        <ele>471.2</ele>
        <time>2020-12-27T15:21:27Z</time>
      </trkpt>
      <trkpt lat="36.819237" lon="-3.499931">
        <ele>473.1</ele>
        <time>2020-12-27T15:21:44Z</time>
      </trkpt>
      <trkpt lat="36.819053" lon="-3.499912">
        <ele>475.0</ele>
        <time>2020-12-27T15:22:01Z</time>
      </trkpt>
      <trkpt lat="36.818885" lon="-3.499846">
        <ele>476.0</ele>
        <time>2020-12-27T15:22:21Z</time>
      </trkpt>
      <trkpt lat="36.818709" lon="-3.499771">
        <ele>480.3</ele>
        <time>2020-12-27T15:22:43Z</time>
      </trkpt>
      <trkpt lat="36.818533" lon="-3.499741">
        <ele>484.6</ele>
        <time>2020-12-27T15:23:08Z</time>
      </trkpt>
      <trkpt lat="36.818343" lon="-3.499724">
        <ele>485.6</ele>
        <time>2020-12-27T15:23:40Z</time>
      </trkpt>
      <trkpt lat="36.818162" lon="-3.499686">
        <ele>489.4</ele>
        <time>2020-12-27T15:24:00Z</time>
      </trkpt>
      <trkpt lat="36.817984" lon="-3.499662">
        <ele>493.3</ele>
        <time>2020-12-27T15:24:24Z</time>
      </trkpt>
      <trkpt lat="36.817800" lon="-3.499703">
        <ele>492.8</ele>
        <time>2020-12-27T15:24:44Z</time>
      </trkpt>
      <trkpt lat="36.817617" lon="-3.499667">
        <ele>495.7</ele>
        <time>2020-12-27T15:25:02Z</time>
      </trkpt>
      <trkpt lat="36.817462" lon="-3.499798">
        <ele>495.2</ele>
        <time>2020-12-27T15:25:19Z</time>
      </trkpt>
      <trkpt lat="36.817335" lon="-3.499959">
        <ele>494.3</ele>
        <time>2020-12-27T15:25:35Z</time>
      </trkpt>
      <trkpt lat="36.817242" lon="-3.500156">
        <ele>492.3</ele>
        <time>2020-12-27T15:25:51Z</time>
      </trkpt>
      <trkpt lat="36.817221" lon="-3.500396">
        <ele>489.4</ele>
        <time>2020-12-27T15:26:07Z</time>
      </trkpt>
      <trkpt lat="36.817221" lon="-3.500632">
        <ele>488.0</ele>
        <time>2020-12-27T15:26:22Z</time>
      </trkpt>
      <trkpt lat="36.817220" lon="-3.500862">
        <ele>485.6</ele>
        <time>2020-12-27T15:26:40Z</time>
      </trkpt>
      <trkpt lat="36.817142" lon="-3.501063">
        <ele>486.1</ele>
        <time>2020-12-27T15:26:56Z</time>
      </trkpt>
      <trkpt lat="36.817085" lon="-3.501164">
        <ele>486.1</ele>
        <time>2020-12-27T15:28:22Z</time>
      </trkpt>
    </trkseg>
  </trk>
</gpx>
